<?xml version="1.0" encoding="UTF-8" standalone="no" ?>
<gpx xmlns="http://www.topografix.com/GPX/1/1" xmlns:xsi="http://www.w3.org/2001/XMLSchema-instance" xsi:schemaLocation="http://www.topografix.com/GPX/1/1 http://www.topografix.com/GPX/1/1/gpx.xsd" version="1.1" creator="VisuGPX - https://www.visugpx.com">
  <metadata>
    <name>Maroc2011 - De Imilchil a Tadighoust</name>
    <desc><![CDATA[La trace de Imilchil jusque Chez Pauline a Tadighoust.]]></desc>
  </metadata>
  <trk>
    <name><![CDATA[Imilchil à Pauline]]></name>
    <trkseg>
      <trkpt lat="32.16619" lon="-5.62993">
        <ele>2170.208</ele>
        <time>2011-04-22T08:01:36Z</time>
      </trkpt>
      <trkpt lat="32.16619" lon="-5.62993">
        <ele>2195.541</ele>
        <time>2011-04-22T08:05:04Z</time>
      </trkpt>
      <trkpt lat="32.16619" lon="-5.62995">
        <ele>2194.525</ele>
        <time>2011-04-22T08:08:48Z</time>
      </trkpt>
      <trkpt lat="32.16614" lon="-5.62996">
        <ele>2194.491</ele>
        <time>2011-04-22T08:08:58Z</time>
      </trkpt>
      <trkpt lat="32.16562" lon="-5.62984">
        <ele>2190.353</ele>
        <time>2011-04-22T08:09:17Z</time>
      </trkpt>
      <trkpt lat="32.16261" lon="-5.62979">
        <ele>2182.979</ele>
        <time>2011-04-22T08:10:10Z</time>
      </trkpt>
      <trkpt lat="32.16166" lon="-5.62989">
        <ele>2185.39</ele>
        <time>2011-04-22T08:10:17Z</time>
      </trkpt>
      <trkpt lat="32.15656" lon="-5.63111">
        <ele>2183.21</ele>
        <time>2011-04-22T08:11:07Z</time>
      </trkpt>
      <trkpt lat="32.15583" lon="-5.63111">
        <ele>2179.815</ele>
        <time>2011-04-22T08:11:22Z</time>
      </trkpt>
      <trkpt lat="32.15524" lon="-5.63084">
        <ele>2171.436</ele>
        <time>2011-04-22T08:11:51Z</time>
      </trkpt>
      <trkpt lat="32.15487" lon="-5.62884">
        <ele>2167.989</ele>
        <time>2011-04-22T08:13:28Z</time>
      </trkpt>
      <trkpt lat="32.15776" lon="-5.61868">
        <ele>2173.665</ele>
        <time>2011-04-22T08:14:38Z</time>
      </trkpt>
      <trkpt lat="32.15977" lon="-5.61852">
        <ele>2174.937</ele>
        <time>2011-04-22T08:14:56Z</time>
      </trkpt>
      <trkpt lat="32.16206" lon="-5.61696">
        <ele>2177.337</ele>
        <time>2011-04-22T08:15:15Z</time>
      </trkpt>
      <trkpt lat="32.16469" lon="-5.61091">
        <ele>2201.395</ele>
        <time>2011-04-22T08:15:54Z</time>
      </trkpt>
      <trkpt lat="32.16487" lon="-5.61037">
        <ele>2202.427</ele>
        <time>2011-04-22T08:15:57Z</time>
      </trkpt>
      <trkpt lat="32.16624" lon="-5.6092">
        <ele>2187.36</ele>
        <time>2011-04-22T08:16:10Z</time>
      </trkpt>
      <trkpt lat="32.16692" lon="-5.60605">
        <ele>2188.737</ele>
        <time>2011-04-22T08:16:33Z</time>
      </trkpt>
      <trkpt lat="32.16641" lon="-5.60296">
        <ele>2189.965</ele>
        <time>2011-04-22T08:16:52Z</time>
      </trkpt>
      <trkpt lat="32.1672" lon="-5.60013">
        <ele>2183.674</ele>
        <time>2011-04-22T08:17:10Z</time>
      </trkpt>
      <trkpt lat="32.16653" lon="-5.59732">
        <ele>2185.435</ele>
        <time>2011-04-22T08:17:26Z</time>
      </trkpt>
      <trkpt lat="32.16398" lon="-5.59655">
        <ele>2186.67</ele>
        <time>2011-04-22T08:17:47Z</time>
      </trkpt>
      <trkpt lat="32.16229" lon="-5.59811">
        <ele>2187.415</ele>
        <time>2011-04-22T08:18:01Z</time>
      </trkpt>
      <trkpt lat="32.16074" lon="-5.6014">
        <ele>2187.741</ele>
        <time>2011-04-22T08:18:22Z</time>
      </trkpt>
      <trkpt lat="32.16009" lon="-5.6027">
        <ele>2186.137</ele>
        <time>2011-04-22T08:18:31Z</time>
      </trkpt>
      <trkpt lat="32.15925" lon="-5.60302">
        <ele>2186.031</ele>
        <time>2011-04-22T08:18:40Z</time>
      </trkpt>
      <trkpt lat="32.15898" lon="-5.59947">
        <ele>2190.442</ele>
        <time>2011-04-22T08:19:06Z</time>
      </trkpt>
      <trkpt lat="32.15506" lon="-5.59821">
        <ele>2191.789</ele>
        <time>2011-04-22T08:19:37Z</time>
      </trkpt>
      <trkpt lat="32.15549" lon="-5.59611">
        <ele>2192.71</ele>
        <time>2011-04-22T08:19:51Z</time>
      </trkpt>
      <trkpt lat="32.1548" lon="-5.59516">
        <ele>2195.449</ele>
        <time>2011-04-22T08:20:03Z</time>
      </trkpt>
      <trkpt lat="32.15329" lon="-5.59078">
        <ele>2198.489</ele>
        <time>2011-04-22T08:20:37Z</time>
      </trkpt>
      <trkpt lat="32.15274" lon="-5.58982">
        <ele>2204.717</ele>
        <time>2011-04-22T08:20:43Z</time>
      </trkpt>
      <trkpt lat="32.14996" lon="-5.58756">
        <ele>2223.624</ele>
        <time>2011-04-22T08:21:10Z</time>
      </trkpt>
      <trkpt lat="32.14918" lon="-5.58464">
        <ele>2209.56</ele>
        <time>2011-04-22T08:21:27Z</time>
      </trkpt>
      <trkpt lat="32.15064" lon="-5.58228">
        <ele>2205.704</ele>
        <time>2011-04-22T08:21:43Z</time>
      </trkpt>
      <trkpt lat="32.15101" lon="-5.5798">
        <ele>2211.495</ele>
        <time>2011-04-22T08:21:59Z</time>
      </trkpt>
      <trkpt lat="32.15276" lon="-5.5769">
        <ele>2219.023</ele>
        <time>2011-04-22T08:22:20Z</time>
      </trkpt>
      <trkpt lat="32.15254" lon="-5.57548">
        <ele>2212.72</ele>
        <time>2011-04-22T08:22:35Z</time>
      </trkpt>
      <trkpt lat="32.14965" lon="-5.57592">
        <ele>2212.288</ele>
        <time>2011-04-22T08:23:02Z</time>
      </trkpt>
      <trkpt lat="32.14765" lon="-5.57496">
        <ele>2216.054</ele>
        <time>2011-04-22T08:23:16Z</time>
      </trkpt>
      <trkpt lat="32.1452" lon="-5.57473">
        <ele>2216.928</ele>
        <time>2011-04-22T08:23:36Z</time>
      </trkpt>
      <trkpt lat="32.14194" lon="-5.57605">
        <ele>2221.047</ele>
        <time>2011-04-22T08:24:13Z</time>
      </trkpt>
      <trkpt lat="32.1408" lon="-5.57407">
        <ele>2217.269</ele>
        <time>2011-04-22T08:24:40Z</time>
      </trkpt>
      <trkpt lat="32.14145" lon="-5.57073">
        <ele>2222.259</ele>
        <time>2011-04-22T08:25:04Z</time>
      </trkpt>
      <trkpt lat="32.14112" lon="-5.56872">
        <ele>2221.9</ele>
        <time>2011-04-22T08:25:16Z</time>
      </trkpt>
      <trkpt lat="32.13889" lon="-5.56749">
        <ele>2219.661</ele>
        <time>2011-04-22T08:25:35Z</time>
      </trkpt>
      <trkpt lat="32.13685" lon="-5.56329">
        <ele>2235.765</ele>
        <time>2011-04-22T08:26:03Z</time>
      </trkpt>
      <trkpt lat="32.13649" lon="-5.56175">
        <ele>2237.423</ele>
        <time>2011-04-22T08:26:13Z</time>
      </trkpt>
      <trkpt lat="32.13558" lon="-5.56015">
        <ele>2228.133</ele>
        <time>2011-04-22T08:26:32Z</time>
      </trkpt>
      <trkpt lat="32.1346" lon="-5.55947">
        <ele>2227.657</ele>
        <time>2011-04-22T08:26:42Z</time>
      </trkpt>
      <trkpt lat="32.12701" lon="-5.55938">
        <ele>2228.877</ele>
        <time>2011-04-22T08:27:49Z</time>
      </trkpt>
      <trkpt lat="32.12534" lon="-5.5558">
        <ele>2232.707</ele>
        <time>2011-04-22T08:28:15Z</time>
      </trkpt>
      <trkpt lat="32.12461" lon="-5.55347">
        <ele>2234.733</ele>
        <time>2011-04-22T08:28:31Z</time>
      </trkpt>
      <trkpt lat="32.12197" lon="-5.55144">
        <ele>2237.578</ele>
        <time>2011-04-22T08:28:56Z</time>
      </trkpt>
      <trkpt lat="32.11942" lon="-5.54991">
        <ele>2238.778</ele>
        <time>2011-04-22T08:29:18Z</time>
      </trkpt>
      <trkpt lat="32.11865" lon="-5.54994">
        <ele>2239.383</ele>
        <time>2011-04-22T08:29:25Z</time>
      </trkpt>
      <trkpt lat="32.11657" lon="-5.55165">
        <ele>2244.212</ele>
        <time>2011-04-22T08:29:44Z</time>
      </trkpt>
      <trkpt lat="32.11522" lon="-5.55268">
        <ele>2241.186</ele>
        <time>2011-04-22T08:29:56Z</time>
      </trkpt>
      <trkpt lat="32.11442" lon="-5.55266">
        <ele>2239.428</ele>
        <time>2011-04-22T08:30:02Z</time>
      </trkpt>
      <trkpt lat="32.11363" lon="-5.55166">
        <ele>2242.777</ele>
        <time>2011-04-22T08:30:12Z</time>
      </trkpt>
      <trkpt lat="32.1131" lon="-5.55126">
        <ele>2243.275</ele>
        <time>2011-04-22T08:30:17Z</time>
      </trkpt>
      <trkpt lat="32.11057" lon="-5.55084">
        <ele>2251.569</ele>
        <time>2011-04-22T08:30:35Z</time>
      </trkpt>
      <trkpt lat="32.11003" lon="-5.55082">
        <ele>2252.175</ele>
        <time>2011-04-22T08:30:39Z</time>
      </trkpt>
      <trkpt lat="32.10958" lon="-5.55039">
        <ele>2249.35</ele>
        <time>2011-04-22T08:30:46Z</time>
      </trkpt>
      <trkpt lat="32.11125" lon="-5.54489">
        <ele>2252.491</ele>
        <time>2011-04-22T08:31:20Z</time>
      </trkpt>
      <trkpt lat="32.10755" lon="-5.53574">
        <ele>2284.881</ele>
        <time>2011-04-22T08:32:23Z</time>
      </trkpt>
      <trkpt lat="32.10795" lon="-5.53377">
        <ele>2298.436</ele>
        <time>2011-04-22T08:32:36Z</time>
      </trkpt>
      <trkpt lat="32.10788" lon="-5.53318">
        <ele>2299.782</ele>
        <time>2011-04-22T08:32:41Z</time>
      </trkpt>
      <trkpt lat="32.10691" lon="-5.53134">
        <ele>2290.857</ele>
        <time>2011-04-22T08:32:53Z</time>
      </trkpt>
      <trkpt lat="32.10499" lon="-5.53026">
        <ele>2279.757</ele>
        <time>2011-04-22T08:33:10Z</time>
      </trkpt>
      <trkpt lat="32.10487" lon="-5.52695">
        <ele>2272.044</ele>
        <time>2011-04-22T08:33:32Z</time>
      </trkpt>
      <trkpt lat="32.10231" lon="-5.52374">
        <ele>2270.716</ele>
        <time>2011-04-22T08:34:05Z</time>
      </trkpt>
      <trkpt lat="32.10196" lon="-5.51591">
        <ele>2285.382</ele>
        <time>2011-04-22T08:34:51Z</time>
      </trkpt>
      <trkpt lat="32.10129" lon="-5.51244">
        <ele>2293.147</ele>
        <time>2011-04-22T08:35:10Z</time>
      </trkpt>
      <trkpt lat="32.09927" lon="-5.50971">
        <ele>2283.858</ele>
        <time>2011-04-22T08:35:32Z</time>
      </trkpt>
      <trkpt lat="32.09687" lon="-5.50804">
        <ele>2282.039</ele>
        <time>2011-04-22T08:35:51Z</time>
      </trkpt>
      <trkpt lat="32.09572" lon="-5.5059">
        <ele>2280.42</ele>
        <time>2011-04-22T08:36:07Z</time>
      </trkpt>
      <trkpt lat="32.09546" lon="-5.50559">
        <ele>2279.219</ele>
        <time>2011-04-22T08:36:10Z</time>
      </trkpt>
      <trkpt lat="32.09271" lon="-5.50451">
        <ele>2278.932</ele>
        <time>2011-04-22T08:36:39Z</time>
      </trkpt>
      <trkpt lat="32.09045" lon="-5.50115">
        <ele>2276.691</ele>
        <time>2011-04-22T08:37:31Z</time>
      </trkpt>
      <trkpt lat="32.08827" lon="-5.49991">
        <ele>2277.806</ele>
        <time>2011-04-22T08:37:48Z</time>
      </trkpt>
      <trkpt lat="32.08479" lon="-5.49588">
        <ele>2281.176</ele>
        <time>2011-04-22T08:38:23Z</time>
      </trkpt>
      <trkpt lat="32.08394" lon="-5.49489">
        <ele>2281.897</ele>
        <time>2011-04-22T08:38:31Z</time>
      </trkpt>
      <trkpt lat="32.08284" lon="-5.49215">
        <ele>2285.095</ele>
        <time>2011-04-22T08:38:47Z</time>
      </trkpt>
      <trkpt lat="32.08285" lon="-5.49001">
        <ele>2289.582</ele>
        <time>2011-04-22T08:39:00Z</time>
      </trkpt>
      <trkpt lat="32.08278" lon="-5.48862">
        <ele>2288.737</ele>
        <time>2011-04-22T08:39:09Z</time>
      </trkpt>
      <trkpt lat="32.08162" lon="-5.48648">
        <ele>2293.303</ele>
        <time>2011-04-22T08:39:30Z</time>
      </trkpt>
      <trkpt lat="32.08157" lon="-5.48514">
        <ele>2290.249</ele>
        <time>2011-04-22T08:39:42Z</time>
      </trkpt>
      <trkpt lat="32.0787" lon="-5.48415">
        <ele>2295.216</ele>
        <time>2011-04-22T08:40:10Z</time>
      </trkpt>
      <trkpt lat="32.0768" lon="-5.48211">
        <ele>2291.875</ele>
        <time>2011-04-22T08:40:29Z</time>
      </trkpt>
      <trkpt lat="32.07586" lon="-5.47991">
        <ele>2292.664</ele>
        <time>2011-04-22T08:40:42Z</time>
      </trkpt>
      <trkpt lat="32.07572" lon="-5.47732">
        <ele>2296.962</ele>
        <time>2011-04-22T08:40:56Z</time>
      </trkpt>
      <trkpt lat="32.07466" lon="-5.47268">
        <ele>2297.055</ele>
        <time>2011-04-22T08:41:26Z</time>
      </trkpt>
      <trkpt lat="32.07326" lon="-5.47039">
        <ele>2299.74</ele>
        <time>2011-04-22T08:41:42Z</time>
      </trkpt>
      <trkpt lat="32.07283" lon="-5.46975">
        <ele>2297.796</ele>
        <time>2011-04-22T08:41:47Z</time>
      </trkpt>
      <trkpt lat="32.07033" lon="-5.46979">
        <ele>2295.761</ele>
        <time>2011-04-22T08:42:14Z</time>
      </trkpt>
      <trkpt lat="32.06989" lon="-5.47183">
        <ele>2292.251</ele>
        <time>2011-04-22T08:42:40Z</time>
      </trkpt>
      <trkpt lat="32.06934" lon="-5.47215">
        <ele>2295.196</ele>
        <time>2011-04-22T08:42:49Z</time>
      </trkpt>
      <trkpt lat="32.06703" lon="-5.47084">
        <ele>2300.423</ele>
        <time>2011-04-22T08:43:09Z</time>
      </trkpt>
      <trkpt lat="32.06506" lon="-5.47214">
        <ele>2302.557</ele>
        <time>2011-04-22T08:43:24Z</time>
      </trkpt>
      <trkpt lat="32.06345" lon="-5.47231">
        <ele>2306.548</ele>
        <time>2011-04-22T08:43:34Z</time>
      </trkpt>
      <trkpt lat="32.0605" lon="-5.47302">
        <ele>2302.564</ele>
        <time>2011-04-22T08:43:59Z</time>
      </trkpt>
      <trkpt lat="32.06003" lon="-5.47202">
        <ele>2306.15</ele>
        <time>2011-04-22T08:44:08Z</time>
      </trkpt>
      <trkpt lat="32.05884" lon="-5.47124">
        <ele>2306.791</ele>
        <time>2011-04-22T08:44:17Z</time>
      </trkpt>
      <trkpt lat="32.0539" lon="-5.47036">
        <ele>2309.06</ele>
        <time>2011-04-22T08:44:53Z</time>
      </trkpt>
      <trkpt lat="32.05244" lon="-5.46868">
        <ele>2312.004</ele>
        <time>2011-04-22T08:45:13Z</time>
      </trkpt>
      <trkpt lat="32.04814" lon="-5.46556">
        <ele>2315.005</ele>
        <time>2011-04-22T08:46:24Z</time>
      </trkpt>
      <trkpt lat="32.04687" lon="-5.46533">
        <ele>2312.679</ele>
        <time>2011-04-22T08:46:48Z</time>
      </trkpt>
      <trkpt lat="32.04327" lon="-5.46837">
        <ele>2322.588</ele>
        <time>2011-04-22T08:47:33Z</time>
      </trkpt>
      <trkpt lat="32.03922" lon="-5.46879">
        <ele>2324.98</ele>
        <time>2011-04-22T08:48:00Z</time>
      </trkpt>
      <trkpt lat="32.03813" lon="-5.46793">
        <ele>2328.017</ele>
        <time>2011-04-22T08:48:07Z</time>
      </trkpt>
      <trkpt lat="32.03636" lon="-5.46676">
        <ele>2326.654</ele>
        <time>2011-04-22T08:48:19Z</time>
      </trkpt>
      <trkpt lat="32.0351" lon="-5.46763">
        <ele>2334.396</ele>
        <time>2011-04-22T08:48:30Z</time>
      </trkpt>
      <trkpt lat="32.03318" lon="-5.47056">
        <ele>2329.556</ele>
        <time>2011-04-22T08:48:48Z</time>
      </trkpt>
      <trkpt lat="32.03247" lon="-5.47089">
        <ele>2331.466</ele>
        <time>2011-04-22T08:48:53Z</time>
      </trkpt>
      <trkpt lat="32.03127" lon="-5.47079">
        <ele>2329.806</ele>
        <time>2011-04-22T08:49:00Z</time>
      </trkpt>
      <trkpt lat="32.03023" lon="-5.4698">
        <ele>2328.137</ele>
        <time>2011-04-22T08:49:09Z</time>
      </trkpt>
      <trkpt lat="32.02984" lon="-5.4693">
        <ele>2326.208</ele>
        <time>2011-04-22T08:49:13Z</time>
      </trkpt>
      <trkpt lat="32.027" lon="-5.46948">
        <ele>2331.241</ele>
        <time>2011-04-22T08:49:32Z</time>
      </trkpt>
      <trkpt lat="32.02676" lon="-5.47081">
        <ele>2334.664</ele>
        <time>2011-04-22T08:49:44Z</time>
      </trkpt>
      <trkpt lat="32.02928" lon="-5.47308">
        <ele>2338.448</ele>
        <time>2011-04-22T08:50:05Z</time>
      </trkpt>
      <trkpt lat="32.02978" lon="-5.47456">
        <ele>2342.283</ele>
        <time>2011-04-22T08:50:13Z</time>
      </trkpt>
      <trkpt lat="32.0296" lon="-5.47703">
        <ele>2335.16</ele>
        <time>2011-04-22T08:50:28Z</time>
      </trkpt>
      <trkpt lat="32.02783" lon="-5.47815">
        <ele>2341.246</ele>
        <time>2011-04-22T08:50:40Z</time>
      </trkpt>
      <trkpt lat="32.02197" lon="-5.47751">
        <ele>2341.079</ele>
        <time>2011-04-22T08:51:15Z</time>
      </trkpt>
      <trkpt lat="32.01946" lon="-5.47841">
        <ele>2346.273</ele>
        <time>2011-04-22T08:51:31Z</time>
      </trkpt>
      <trkpt lat="32.01606" lon="-5.48068">
        <ele>2355.196</ele>
        <time>2011-04-22T08:51:54Z</time>
      </trkpt>
      <trkpt lat="32.0146" lon="-5.48326">
        <ele>2356.43</ele>
        <time>2011-04-22T08:52:12Z</time>
      </trkpt>
      <trkpt lat="32.01446" lon="-5.48461">
        <ele>2360.733</ele>
        <time>2011-04-22T08:52:21Z</time>
      </trkpt>
      <trkpt lat="32.01129" lon="-5.48833">
        <ele>2355.163</ele>
        <time>2011-04-22T08:52:55Z</time>
      </trkpt>
      <trkpt lat="32.0102" lon="-5.49039">
        <ele>2362.583</ele>
        <time>2011-04-22T08:53:20Z</time>
      </trkpt>
      <trkpt lat="32.0084" lon="-5.48955">
        <ele>2350.864</ele>
        <time>2011-04-22T08:53:53Z</time>
      </trkpt>
      <trkpt lat="32.00814" lon="-5.48886">
        <ele>2349.426</ele>
        <time>2011-04-22T08:54:03Z</time>
      </trkpt>
      <trkpt lat="32.0081" lon="-5.48867">
        <ele>2348.381</ele>
        <time>2011-04-22T08:54:11Z</time>
      </trkpt>
      <trkpt lat="32.00875" lon="-5.48995">
        <ele>2352.643</ele>
        <time>2011-04-22T08:54:37Z</time>
      </trkpt>
      <trkpt lat="32.00816" lon="-5.49076">
        <ele>2354.761</ele>
        <time>2011-04-22T08:54:55Z</time>
      </trkpt>
      <trkpt lat="32.00603" lon="-5.49274">
        <ele>2357.157</ele>
        <time>2011-04-22T08:55:44Z</time>
      </trkpt>
      <trkpt lat="32.00526" lon="-5.49416">
        <ele>2357.063</ele>
        <time>2011-04-22T08:56:09Z</time>
      </trkpt>
      <trkpt lat="32.00602" lon="-5.49577">
        <ele>2366.634</ele>
        <time>2011-04-22T08:56:36Z</time>
      </trkpt>
      <trkpt lat="32.00506" lon="-5.49874">
        <ele>2375.143</ele>
        <time>2011-04-22T08:57:43Z</time>
      </trkpt>
      <trkpt lat="32.00317" lon="-5.50139">
        <ele>2373.588</ele>
        <time>2011-04-22T08:58:15Z</time>
      </trkpt>
      <trkpt lat="32.00109" lon="-5.50677">
        <ele>2372.547</ele>
        <time>2011-04-22T08:59:59Z</time>
      </trkpt>
      <trkpt lat="31.998" lon="-5.50824">
        <ele>2370.308</ele>
        <time>2011-04-22T09:00:36Z</time>
      </trkpt>
      <trkpt lat="31.99409" lon="-5.51247">
        <ele>2381.205</ele>
        <time>2011-04-22T09:01:39Z</time>
      </trkpt>
      <trkpt lat="31.99229" lon="-5.5163">
        <ele>2381.596</ele>
        <time>2011-04-22T09:02:29Z</time>
      </trkpt>
      <trkpt lat="31.99065" lon="-5.51708">
        <ele>2385.844</ele>
        <time>2011-04-22T09:02:54Z</time>
      </trkpt>
      <trkpt lat="31.98897" lon="-5.51815">
        <ele>2384.291</ele>
        <time>2011-04-22T09:03:17Z</time>
      </trkpt>
      <trkpt lat="31.98874" lon="-5.51851">
        <ele>2382.885</ele>
        <time>2011-04-22T09:03:21Z</time>
      </trkpt>
      <trkpt lat="31.98777" lon="-5.52112">
        <ele>2386.757</ele>
        <time>2011-04-22T09:03:51Z</time>
      </trkpt>
      <trkpt lat="31.9859" lon="-5.52375">
        <ele>2391.393</ele>
        <time>2011-04-22T09:04:23Z</time>
      </trkpt>
      <trkpt lat="31.98516" lon="-5.52624">
        <ele>2398.27</ele>
        <time>2011-04-22T09:04:50Z</time>
      </trkpt>
      <trkpt lat="31.98451" lon="-5.52781">
        <ele>2401.116</ele>
        <time>2011-04-22T09:05:09Z</time>
      </trkpt>
      <trkpt lat="31.98392" lon="-5.53019">
        <ele>2397.921</ele>
        <time>2011-04-22T09:05:31Z</time>
      </trkpt>
      <trkpt lat="31.98303" lon="-5.53145">
        <ele>2401.119</ele>
        <time>2011-04-22T09:05:47Z</time>
      </trkpt>
      <trkpt lat="31.98277" lon="-5.53211">
        <ele>2400.723</ele>
        <time>2011-04-22T09:05:54Z</time>
      </trkpt>
      <trkpt lat="31.98278" lon="-5.53493">
        <ele>2406.232</ele>
        <time>2011-04-22T09:06:38Z</time>
      </trkpt>
      <trkpt lat="31.98384" lon="-5.53602">
        <ele>2405.594</ele>
        <time>2011-04-22T09:07:02Z</time>
      </trkpt>
      <trkpt lat="31.98391" lon="-5.53758">
        <ele>2406.903</ele>
        <time>2011-04-22T09:07:18Z</time>
      </trkpt>
      <trkpt lat="31.98224" lon="-5.53821">
        <ele>2409.25</ele>
        <time>2011-04-22T09:07:43Z</time>
      </trkpt>
      <trkpt lat="31.98094" lon="-5.54131">
        <ele>2412.772</ele>
        <time>2011-04-22T09:08:23Z</time>
      </trkpt>
      <trkpt lat="31.97875" lon="-5.54284">
        <ele>2424.595</ele>
        <time>2011-04-22T09:08:49Z</time>
      </trkpt>
      <trkpt lat="31.97812" lon="-5.54393">
        <ele>2429.271</ele>
        <time>2011-04-22T09:09:04Z</time>
      </trkpt>
      <trkpt lat="31.97979" lon="-5.5488">
        <ele>2431.702</ele>
        <time>2011-04-22T09:10:10Z</time>
      </trkpt>
      <trkpt lat="31.98146" lon="-5.55054">
        <ele>2440.629</ele>
        <time>2011-04-22T09:10:50Z</time>
      </trkpt>
      <trkpt lat="31.98295" lon="-5.55099">
        <ele>2439.649</ele>
        <time>2011-04-22T09:11:11Z</time>
      </trkpt>
      <trkpt lat="31.98225" lon="-5.55376">
        <ele>2449.652</ele>
        <time>2011-04-22T09:11:51Z</time>
      </trkpt>
      <trkpt lat="31.98255" lon="-5.55637">
        <ele>2459.026</ele>
        <time>2011-04-22T09:12:25Z</time>
      </trkpt>
      <trkpt lat="31.98172" lon="-5.55924">
        <ele>2463.084</ele>
        <time>2011-04-22T09:12:59Z</time>
      </trkpt>
      <trkpt lat="31.98193" lon="-5.56072">
        <ele>2462.709</ele>
        <time>2011-04-22T09:13:20Z</time>
      </trkpt>
      <trkpt lat="31.97933" lon="-5.56415">
        <ele>2480.864</ele>
        <time>2011-04-22T09:14:17Z</time>
      </trkpt>
      <trkpt lat="31.97891" lon="-5.56552">
        <ele>2496.453</ele>
        <time>2011-04-22T09:14:41Z</time>
      </trkpt>
      <trkpt lat="31.9779" lon="-5.56785">
        <ele>2505.323</ele>
        <time>2011-04-22T09:15:26Z</time>
      </trkpt>
      <trkpt lat="31.97793" lon="-5.56999">
        <ele>2520.019</ele>
        <time>2011-04-22T09:15:56Z</time>
      </trkpt>
      <trkpt lat="31.97639" lon="-5.57047">
        <ele>2541.607</ele>
        <time>2011-04-22T09:16:25Z</time>
      </trkpt>
      <trkpt lat="31.97556" lon="-5.57286">
        <ele>2543.952</ele>
        <time>2011-04-22T09:17:04Z</time>
      </trkpt>
      <trkpt lat="31.97239" lon="-5.57317">
        <ele>2559.376</ele>
        <time>2011-04-22T09:17:48Z</time>
      </trkpt>
      <trkpt lat="31.97073" lon="-5.57521">
        <ele>2583.26</ele>
        <time>2011-04-22T09:18:25Z</time>
      </trkpt>
      <trkpt lat="31.9677" lon="-5.58099">
        <ele>2602.34</ele>
        <time>2011-04-22T09:19:34Z</time>
      </trkpt>
      <trkpt lat="31.96655" lon="-5.58612">
        <ele>2633.13</ele>
        <time>2011-04-22T09:20:38Z</time>
      </trkpt>
      <trkpt lat="31.96706" lon="-5.58743">
        <ele>2641.119</ele>
        <time>2011-04-22T09:20:53Z</time>
      </trkpt>
      <trkpt lat="31.9667" lon="-5.58864">
        <ele>2643.939</ele>
        <time>2011-04-22T09:21:06Z</time>
      </trkpt>
      <trkpt lat="31.96522" lon="-5.59016">
        <ele>2646.583</ele>
        <time>2011-04-22T09:21:32Z</time>
      </trkpt>
      <trkpt lat="31.96279" lon="-5.58975">
        <ele>2667.881</ele>
        <time>2011-04-22T09:22:10Z</time>
      </trkpt>
      <trkpt lat="31.95933" lon="-5.59322">
        <ele>2727.355</ele>
        <time>2011-04-22T09:23:46Z</time>
      </trkpt>
      <trkpt lat="31.95644" lon="-5.59854">
        <ele>2697.748</ele>
        <time>2011-04-22T09:24:35Z</time>
      </trkpt>
      <trkpt lat="31.95389" lon="-5.60139">
        <ele>2670.817</ele>
        <time>2011-04-22T09:26:36Z</time>
      </trkpt>
      <trkpt lat="31.95279" lon="-5.6044">
        <ele>2692.116</ele>
        <time>2011-04-22T09:27:17Z</time>
      </trkpt>
      <trkpt lat="31.95302" lon="-5.61021">
        <ele>2736.259</ele>
        <time>2011-04-22T09:42:11Z</time>
      </trkpt>
      <trkpt lat="31.95212" lon="-5.61197">
        <ele>2747.78</ele>
        <time>2011-04-22T09:42:41Z</time>
      </trkpt>
      <trkpt lat="31.95186" lon="-5.61508">
        <ele>2771.549</ele>
        <time>2011-04-22T09:43:19Z</time>
      </trkpt>
      <trkpt lat="31.95178" lon="-5.61542">
        <ele>2773.097</ele>
        <time>2011-04-22T09:43:23Z</time>
      </trkpt>
      <trkpt lat="31.95248" lon="-5.61824">
        <ele>2791.566</ele>
        <time>2011-04-22T09:44:02Z</time>
      </trkpt>
      <trkpt lat="31.95277" lon="-5.61839">
        <ele>2791.398</ele>
        <time>2011-04-22T09:44:11Z</time>
      </trkpt>
      <trkpt lat="31.9539" lon="-5.61915">
        <ele>2781.999</ele>
        <time>2011-04-22T09:45:10Z</time>
      </trkpt>
      <trkpt lat="31.94906" lon="-5.62836">
        <ele>2714.515</ele>
        <time>2011-04-22T09:47:10Z</time>
      </trkpt>
      <trkpt lat="31.94265" lon="-5.63262">
        <ele>2701.208</ele>
        <time>2011-04-22T09:48:35Z</time>
      </trkpt>
      <trkpt lat="31.93824" lon="-5.63641">
        <ele>2687.607</ele>
        <time>2011-04-22T09:49:32Z</time>
      </trkpt>
      <trkpt lat="31.93629" lon="-5.63891">
        <ele>2687.756</ele>
        <time>2011-04-22T09:50:09Z</time>
      </trkpt>
      <trkpt lat="31.93399" lon="-5.63978">
        <ele>2697.497</ele>
        <time>2011-04-22T09:50:43Z</time>
      </trkpt>
      <trkpt lat="31.93221" lon="-5.64331">
        <ele>2717.169</ele>
        <time>2011-04-22T09:51:48Z</time>
      </trkpt>
      <trkpt lat="31.92632" lon="-5.64429">
        <ele>2729.491</ele>
        <time>2011-04-22T09:52:59Z</time>
      </trkpt>
      <trkpt lat="31.92464" lon="-5.64693">
        <ele>2737.154</ele>
        <time>2011-04-22T09:53:35Z</time>
      </trkpt>
      <trkpt lat="31.924" lon="-5.64987">
        <ele>2751.577</ele>
        <time>2011-04-22T09:54:08Z</time>
      </trkpt>
      <trkpt lat="31.92391" lon="-5.65014">
        <ele>2751.848</ele>
        <time>2011-04-22T09:54:12Z</time>
      </trkpt>
      <trkpt lat="31.92566" lon="-5.6488">
        <ele>2764.52</ele>
        <time>2011-04-22T09:54:43Z</time>
      </trkpt>
      <trkpt lat="31.92569" lon="-5.64927">
        <ele>2770.883</ele>
        <time>2011-04-22T09:54:52Z</time>
      </trkpt>
      <trkpt lat="31.92318" lon="-5.65228">
        <ele>2796.1</ele>
        <time>2011-04-22T09:55:35Z</time>
      </trkpt>
      <trkpt lat="31.92208" lon="-5.65488">
        <ele>2813.798</ele>
        <time>2011-04-22T09:56:07Z</time>
      </trkpt>
      <trkpt lat="31.91967" lon="-5.65793">
        <ele>2845.219</ele>
        <time>2011-04-22T09:56:51Z</time>
      </trkpt>
      <trkpt lat="31.91916" lon="-5.65863">
        <ele>2847.375</ele>
        <time>2011-04-22T09:57:02Z</time>
      </trkpt>
      <trkpt lat="31.91566" lon="-5.66129">
        <ele>2878.968</ele>
        <time>2011-04-22T09:57:54Z</time>
      </trkpt>
      <trkpt lat="31.91246" lon="-5.66175">
        <ele>2901.368</ele>
        <time>2011-04-22T09:58:37Z</time>
      </trkpt>
      <trkpt lat="31.91203" lon="-5.66194">
        <ele>2902.398</ele>
        <time>2011-04-22T09:58:42Z</time>
      </trkpt>
      <trkpt lat="31.90996" lon="-5.66295">
        <ele>2898.498</ele>
        <time>2011-04-22T10:00:18Z</time>
      </trkpt>
      <trkpt lat="31.9096" lon="-5.66379">
        <ele>2896.365</ele>
        <time>2011-04-22T10:00:29Z</time>
      </trkpt>
      <trkpt lat="31.90894" lon="-5.66675">
        <ele>2884.209</ele>
        <time>2011-04-22T10:01:47Z</time>
      </trkpt>
      <trkpt lat="31.90655" lon="-5.66686">
        <ele>2877.635</ele>
        <time>2011-04-22T10:02:31Z</time>
      </trkpt>
      <trkpt lat="31.89696" lon="-5.67829">
        <ele>2839.258</ele>
        <time>2011-04-22T10:05:34Z</time>
      </trkpt>
      <trkpt lat="31.89627" lon="-5.67893">
        <ele>2835.543</ele>
        <time>2011-04-22T10:05:47Z</time>
      </trkpt>
      <trkpt lat="31.89435" lon="-5.68186">
        <ele>2829.456</ele>
        <time>2011-04-22T10:06:19Z</time>
      </trkpt>
      <trkpt lat="31.89258" lon="-5.683">
        <ele>2826.062</ele>
        <time>2011-04-22T10:27:20Z</time>
      </trkpt>
      <trkpt lat="31.89249" lon="-5.68365">
        <ele>2825.102</ele>
        <time>2011-04-22T10:27:30Z</time>
      </trkpt>
      <trkpt lat="31.89168" lon="-5.68575">
        <ele>2816.094</ele>
        <time>2011-04-22T10:28:00Z</time>
      </trkpt>
      <trkpt lat="31.88921" lon="-5.68692">
        <ele>2805.598</ele>
        <time>2011-04-22T10:28:34Z</time>
      </trkpt>
      <trkpt lat="31.8894" lon="-5.69073">
        <ele>2791.476</ele>
        <time>2011-04-22T10:29:26Z</time>
      </trkpt>
      <trkpt lat="31.8869" lon="-5.69184">
        <ele>2780.995</ele>
        <time>2011-04-22T10:30:01Z</time>
      </trkpt>
      <trkpt lat="31.88447" lon="-5.69663">
        <ele>2761.616</ele>
        <time>2011-04-22T10:31:19Z</time>
      </trkpt>
      <trkpt lat="31.88181" lon="-5.69701">
        <ele>2750.276</ele>
        <time>2011-04-22T10:31:57Z</time>
      </trkpt>
      <trkpt lat="31.88051" lon="-5.69784">
        <ele>2744.635</ele>
        <time>2011-04-22T10:32:22Z</time>
      </trkpt>
      <trkpt lat="31.87994" lon="-5.69962">
        <ele>2736.606</ele>
        <time>2011-04-22T10:32:45Z</time>
      </trkpt>
      <trkpt lat="31.88068" lon="-5.70236">
        <ele>2721.235</ele>
        <time>2011-04-22T10:33:19Z</time>
      </trkpt>
      <trkpt lat="31.87799" lon="-5.70415">
        <ele>2706.134</ele>
        <time>2011-04-22T10:34:01Z</time>
      </trkpt>
      <trkpt lat="31.87747" lon="-5.70581">
        <ele>2697.125</ele>
        <time>2011-04-22T10:34:24Z</time>
      </trkpt>
      <trkpt lat="31.87822" lon="-5.70798">
        <ele>2680.871</ele>
        <time>2011-04-22T10:34:59Z</time>
      </trkpt>
      <trkpt lat="31.87699" lon="-5.7087">
        <ele>2671.409</ele>
        <time>2011-04-22T10:35:25Z</time>
      </trkpt>
      <trkpt lat="31.87652" lon="-5.70995">
        <ele>2664.209</ele>
        <time>2011-04-22T10:35:44Z</time>
      </trkpt>
      <trkpt lat="31.87678" lon="-5.7114">
        <ele>2656.719</ele>
        <time>2011-04-22T10:36:07Z</time>
      </trkpt>
      <trkpt lat="31.8735" lon="-5.71191">
        <ele>2635.662</ele>
        <time>2011-04-22T10:36:50Z</time>
      </trkpt>
      <trkpt lat="31.87092" lon="-5.71408">
        <ele>2621.26</ele>
        <time>2011-04-22T10:37:33Z</time>
      </trkpt>
      <trkpt lat="31.87026" lon="-5.71571">
        <ele>2611.455</ele>
        <time>2011-04-22T10:37:50Z</time>
      </trkpt>
      <trkpt lat="31.86861" lon="-5.7164">
        <ele>2599.48</ele>
        <time>2011-04-22T10:38:13Z</time>
      </trkpt>
      <trkpt lat="31.86741" lon="-5.71994">
        <ele>2577.498</ele>
        <time>2011-04-22T10:38:57Z</time>
      </trkpt>
      <trkpt lat="31.86557" lon="-5.72118">
        <ele>2564.662</ele>
        <time>2011-04-22T10:40:21Z</time>
      </trkpt>
      <trkpt lat="31.86443" lon="-5.72356">
        <ele>2550.866</ele>
        <time>2011-04-22T10:40:56Z</time>
      </trkpt>
      <trkpt lat="31.8641" lon="-5.72475">
        <ele>2543.126</ele>
        <time>2011-04-22T10:41:12Z</time>
      </trkpt>
      <trkpt lat="31.86457" lon="-5.7268">
        <ele>2532.079</ele>
        <time>2011-04-22T10:41:44Z</time>
      </trkpt>
      <trkpt lat="31.86378" lon="-5.72685">
        <ele>2525.861</ele>
        <time>2011-04-22T10:42:02Z</time>
      </trkpt>
      <trkpt lat="31.863" lon="-5.72256">
        <ele>2504.275</ele>
        <time>2011-04-22T10:42:59Z</time>
      </trkpt>
      <trkpt lat="31.86229" lon="-5.72143">
        <ele>2495.166</ele>
        <time>2011-04-22T10:43:22Z</time>
      </trkpt>
      <trkpt lat="31.86252" lon="-5.72085">
        <ele>2493.176</ele>
        <time>2011-04-22T10:43:31Z</time>
      </trkpt>
      <trkpt lat="31.86246" lon="-5.71945">
        <ele>2480.312</ele>
        <time>2011-04-22T10:44:03Z</time>
      </trkpt>
      <trkpt lat="31.86077" lon="-5.72136">
        <ele>2460.497</ele>
        <time>2011-04-22T10:44:59Z</time>
      </trkpt>
      <trkpt lat="31.86098" lon="-5.72262">
        <ele>2449.254</ele>
        <time>2011-04-22T10:45:28Z</time>
      </trkpt>
      <trkpt lat="31.85997" lon="-5.72076">
        <ele>2437.688</ele>
        <time>2011-04-22T10:46:00Z</time>
      </trkpt>
      <trkpt lat="31.86037" lon="-5.71975">
        <ele>2429.147</ele>
        <time>2011-04-22T10:46:30Z</time>
      </trkpt>
      <trkpt lat="31.85917" lon="-5.72082">
        <ele>2419.427</ele>
        <time>2011-04-22T10:47:00Z</time>
      </trkpt>
      <trkpt lat="31.85911" lon="-5.72227">
        <ele>2407.92</ele>
        <time>2011-04-22T10:47:31Z</time>
      </trkpt>
      <trkpt lat="31.85808" lon="-5.72018">
        <ele>2392.211</ele>
        <time>2011-04-22T10:48:19Z</time>
      </trkpt>
      <trkpt lat="31.85682" lon="-5.72031">
        <ele>2376.567</ele>
        <time>2011-04-22T10:48:42Z</time>
      </trkpt>
      <trkpt lat="31.85508" lon="-5.72164">
        <ele>2353.911</ele>
        <time>2011-04-22T10:49:28Z</time>
      </trkpt>
      <trkpt lat="31.85807" lon="-5.72332">
        <ele>2336.425</ele>
        <time>2011-04-22T10:50:28Z</time>
      </trkpt>
      <trkpt lat="31.85931" lon="-5.72484">
        <ele>2329.507</ele>
        <time>2011-04-22T10:51:08Z</time>
      </trkpt>
      <trkpt lat="31.85924" lon="-5.72492">
        <ele>2328.852</ele>
        <time>2011-04-22T10:51:11Z</time>
      </trkpt>
      <trkpt lat="31.85752" lon="-5.72489">
        <ele>2315.7</ele>
        <time>2011-04-22T10:51:45Z</time>
      </trkpt>
      <trkpt lat="31.85585" lon="-5.72589">
        <ele>2302.526</ele>
        <time>2011-04-22T10:52:21Z</time>
      </trkpt>
      <trkpt lat="31.85268" lon="-5.72696">
        <ele>2277.41</ele>
        <time>2011-04-22T10:53:24Z</time>
      </trkpt>
      <trkpt lat="31.85275" lon="-5.72789">
        <ele>2271.63</ele>
        <time>2011-04-22T10:53:40Z</time>
      </trkpt>
      <trkpt lat="31.84969" lon="-5.72807">
        <ele>2250.441</ele>
        <time>2011-04-22T10:54:39Z</time>
      </trkpt>
      <trkpt lat="31.85166" lon="-5.72955">
        <ele>2234.62</ele>
        <time>2011-04-22T10:55:24Z</time>
      </trkpt>
      <trkpt lat="31.84962" lon="-5.72935">
        <ele>2222.385</ele>
        <time>2011-04-22T10:56:05Z</time>
      </trkpt>
      <trkpt lat="31.85031" lon="-5.72998">
        <ele>2214.327</ele>
        <time>2011-04-22T10:56:30Z</time>
      </trkpt>
      <trkpt lat="31.84897" lon="-5.7297">
        <ele>2205.117</ele>
        <time>2011-04-22T10:56:58Z</time>
      </trkpt>
      <trkpt lat="31.85025" lon="-5.73065">
        <ele>2195.739</ele>
        <time>2011-04-22T10:57:22Z</time>
      </trkpt>
      <trkpt lat="31.8506" lon="-5.73143">
        <ele>2190.916</ele>
        <time>2011-04-22T10:57:38Z</time>
      </trkpt>
      <trkpt lat="31.84923" lon="-5.73431">
        <ele>2167.646</ele>
        <time>2011-04-22T10:58:30Z</time>
      </trkpt>
      <trkpt lat="31.84849" lon="-5.7322">
        <ele>2150.063</ele>
        <time>2011-04-22T10:59:09Z</time>
      </trkpt>
      <trkpt lat="31.8474" lon="-5.73117">
        <ele>2135.87</ele>
        <time>2011-04-22T10:59:36Z</time>
      </trkpt>
      <trkpt lat="31.84224" lon="-5.72996">
        <ele>2122.081</ele>
        <time>2011-04-22T11:00:56Z</time>
      </trkpt>
      <trkpt lat="31.84136" lon="-5.72924">
        <ele>2119.375</ele>
        <time>2011-04-22T11:01:08Z</time>
      </trkpt>
      <trkpt lat="31.84046" lon="-5.72993">
        <ele>2117.862</ele>
        <time>2011-04-22T11:01:25Z</time>
      </trkpt>
      <trkpt lat="31.84017" lon="-5.7303">
        <ele>2117.104</ele>
        <time>2011-04-22T11:01:33Z</time>
      </trkpt>
      <trkpt lat="31.83845" lon="-5.72972">
        <ele>2119.853</ele>
        <time>2011-04-22T11:02:00Z</time>
      </trkpt>
      <trkpt lat="31.8379" lon="-5.72994">
        <ele>2113.616</ele>
        <time>2011-04-22T11:02:09Z</time>
      </trkpt>
      <trkpt lat="31.83803" lon="-5.73197">
        <ele>2115.293</ele>
        <time>2011-04-22T11:02:33Z</time>
      </trkpt>
      <trkpt lat="31.83921" lon="-5.73471">
        <ele>2112.295</ele>
        <time>2011-04-22T11:03:02Z</time>
      </trkpt>
      <trkpt lat="31.83448" lon="-5.73862">
        <ele>2102.816</ele>
        <time>2011-04-22T11:04:21Z</time>
      </trkpt>
      <trkpt lat="31.835" lon="-5.7398">
        <ele>2100.812</ele>
        <time>2011-04-22T11:04:38Z</time>
      </trkpt>
      <trkpt lat="31.83643" lon="-5.7404">
        <ele>2102.408</ele>
        <time>2011-04-22T11:04:57Z</time>
      </trkpt>
      <trkpt lat="31.83673" lon="-5.742">
        <ele>2106.92</ele>
        <time>2011-04-22T11:05:12Z</time>
      </trkpt>
      <trkpt lat="31.83665" lon="-5.74259">
        <ele>2107.189</ele>
        <time>2011-04-22T11:05:17Z</time>
      </trkpt>
      <trkpt lat="31.8337" lon="-5.74551">
        <ele>2104.322</ele>
        <time>2011-04-22T11:05:57Z</time>
      </trkpt>
      <trkpt lat="31.83298" lon="-5.74729">
        <ele>2107.65</ele>
        <time>2011-04-22T11:06:10Z</time>
      </trkpt>
      <trkpt lat="31.83286" lon="-5.74814">
        <ele>2101.541</ele>
        <time>2011-04-22T11:06:15Z</time>
      </trkpt>
      <trkpt lat="31.83317" lon="-5.75111">
        <ele>2098.39</ele>
        <time>2011-04-22T11:06:50Z</time>
      </trkpt>
      <trkpt lat="31.83423" lon="-5.75296">
        <ele>2102.916</ele>
        <time>2011-04-22T11:07:04Z</time>
      </trkpt>
      <trkpt lat="31.83541" lon="-5.75659">
        <ele>2093.851</ele>
        <time>2011-04-22T11:07:26Z</time>
      </trkpt>
      <trkpt lat="31.83522" lon="-5.75939">
        <ele>2096.534</ele>
        <time>2011-04-22T11:07:43Z</time>
      </trkpt>
      <trkpt lat="31.83417" lon="-5.76154">
        <ele>2088.283</ele>
        <time>2011-04-22T11:08:01Z</time>
      </trkpt>
      <trkpt lat="31.82816" lon="-5.76123">
        <ele>2082.773</ele>
        <time>2011-04-22T11:08:43Z</time>
      </trkpt>
      <trkpt lat="31.81861" lon="-5.76517">
        <ele>2076.293</ele>
        <time>2011-04-22T11:09:55Z</time>
      </trkpt>
      <trkpt lat="31.81799" lon="-5.76529">
        <ele>2074.873</ele>
        <time>2011-04-22T11:09:59Z</time>
      </trkpt>
      <trkpt lat="31.81474" lon="-5.76794">
        <ele>2075.622</ele>
        <time>2011-04-22T11:10:27Z</time>
      </trkpt>
      <trkpt lat="31.81377" lon="-5.76939">
        <ele>2070.641</ele>
        <time>2011-04-22T11:10:41Z</time>
      </trkpt>
      <trkpt lat="31.8138" lon="-5.77007">
        <ele>2069.82</ele>
        <time>2011-04-22T11:10:49Z</time>
      </trkpt>
      <trkpt lat="31.81563" lon="-5.77213">
        <ele>2070.715</ele>
        <time>2011-04-22T11:11:25Z</time>
      </trkpt>
      <trkpt lat="31.81563" lon="-5.77289">
        <ele>2072.479</ele>
        <time>2011-04-22T11:11:39Z</time>
      </trkpt>
      <trkpt lat="31.81217" lon="-5.77405">
        <ele>2068.47</ele>
        <time>2011-04-22T11:12:25Z</time>
      </trkpt>
      <trkpt lat="31.80931" lon="-5.7737">
        <ele>2078.112</ele>
        <time>2011-04-22T11:12:48Z</time>
      </trkpt>
      <trkpt lat="31.80586" lon="-5.77609">
        <ele>2067.178</ele>
        <time>2011-04-22T11:13:23Z</time>
      </trkpt>
      <trkpt lat="31.80404" lon="-5.77645">
        <ele>2061.146</ele>
        <time>2011-04-22T11:13:41Z</time>
      </trkpt>
      <trkpt lat="31.80312" lon="-5.77807">
        <ele>2063.318</ele>
        <time>2011-04-22T11:13:55Z</time>
      </trkpt>
      <trkpt lat="31.80188" lon="-5.7778">
        <ele>2060.844</ele>
        <time>2011-04-22T11:14:06Z</time>
      </trkpt>
      <trkpt lat="31.80041" lon="-5.77633">
        <ele>2067.656</ele>
        <time>2011-04-22T11:14:21Z</time>
      </trkpt>
      <trkpt lat="31.79866" lon="-5.7748">
        <ele>2062.851</ele>
        <time>2011-04-22T11:14:43Z</time>
      </trkpt>
      <trkpt lat="31.79769" lon="-5.7775">
        <ele>2050.93</ele>
        <time>2011-04-22T11:15:09Z</time>
      </trkpt>
      <trkpt lat="31.79627" lon="-5.77791">
        <ele>2051.772</ele>
        <time>2011-04-22T11:15:25Z</time>
      </trkpt>
      <trkpt lat="31.79307" lon="-5.77654">
        <ele>2053.541</ele>
        <time>2011-04-22T11:17:19Z</time>
      </trkpt>
      <trkpt lat="31.79268" lon="-5.7766">
        <ele>2052.495</ele>
        <time>2011-04-22T11:17:23Z</time>
      </trkpt>
      <trkpt lat="31.79071" lon="-5.77954">
        <ele>2046.005</ele>
        <time>2011-04-22T11:17:54Z</time>
      </trkpt>
      <trkpt lat="31.78373" lon="-5.78245">
        <ele>2052.807</ele>
        <time>2011-04-22T11:19:12Z</time>
      </trkpt>
      <trkpt lat="31.77883" lon="-5.78371">
        <ele>2049.444</ele>
        <time>2011-04-22T11:19:50Z</time>
      </trkpt>
      <trkpt lat="31.77687" lon="-5.78387">
        <ele>2046.1</ele>
        <time>2011-04-22T11:20:10Z</time>
      </trkpt>
      <trkpt lat="31.77528" lon="-5.78559">
        <ele>2049.261</ele>
        <time>2011-04-22T11:20:32Z</time>
      </trkpt>
      <trkpt lat="31.76894" lon="-5.78018">
        <ele>2075.626</ele>
        <time>2011-04-22T11:21:32Z</time>
      </trkpt>
      <trkpt lat="31.76751" lon="-5.77964">
        <ele>2081.73</ele>
        <time>2011-04-22T11:21:41Z</time>
      </trkpt>
      <trkpt lat="31.7599" lon="-5.78037">
        <ele>2062.236</ele>
        <time>2011-04-22T11:22:40Z</time>
      </trkpt>
      <trkpt lat="31.75747" lon="-5.78276">
        <ele>2058.833</ele>
        <time>2011-04-22T11:23:03Z</time>
      </trkpt>
      <trkpt lat="31.75694" lon="-5.78447">
        <ele>2060.917</ele>
        <time>2011-04-22T11:23:13Z</time>
      </trkpt>
      <trkpt lat="31.75584" lon="-5.78954">
        <ele>2059.485</ele>
        <time>2011-04-22T11:23:41Z</time>
      </trkpt>
      <trkpt lat="31.75409" lon="-5.79452">
        <ele>2054.78</ele>
        <time>2011-04-22T11:24:07Z</time>
      </trkpt>
      <trkpt lat="31.7528" lon="-5.79655">
        <ele>2042.812</ele>
        <time>2011-04-22T11:24:18Z</time>
      </trkpt>
      <trkpt lat="31.7526" lon="-5.79827">
        <ele>2043.091</ele>
        <time>2011-04-22T11:24:28Z</time>
      </trkpt>
      <trkpt lat="31.75194" lon="-5.79938">
        <ele>2039.242</ele>
        <time>2011-04-22T11:24:37Z</time>
      </trkpt>
      <trkpt lat="31.74907" lon="-5.80027">
        <ele>2034.966</ele>
        <time>2011-04-22T11:24:58Z</time>
      </trkpt>
      <trkpt lat="31.74353" lon="-5.79966">
        <ele>2011.171</ele>
        <time>2011-04-22T11:26:02Z</time>
      </trkpt>
      <trkpt lat="31.7406" lon="-5.80204">
        <ele>2013.536</ele>
        <time>2011-04-22T11:26:48Z</time>
      </trkpt>
      <trkpt lat="31.7385" lon="-5.80084">
        <ele>2007.961</ele>
        <time>2011-04-22T11:27:17Z</time>
      </trkpt>
      <trkpt lat="31.73555" lon="-5.80107">
        <ele>2008.724</ele>
        <time>2011-04-22T11:27:39Z</time>
      </trkpt>
      <trkpt lat="31.72448" lon="-5.80587">
        <ele>2000.85</ele>
        <time>2011-04-22T11:29:13Z</time>
      </trkpt>
      <trkpt lat="31.72185" lon="-5.80518">
        <ele>2021.98</ele>
        <time>2011-04-22T11:29:31Z</time>
      </trkpt>
      <trkpt lat="31.72112" lon="-5.80379">
        <ele>2034.227</ele>
        <time>2011-04-22T11:29:40Z</time>
      </trkpt>
      <trkpt lat="31.72039" lon="-5.80299">
        <ele>2036.945</ele>
        <time>2011-04-22T11:29:48Z</time>
      </trkpt>
      <trkpt lat="31.71879" lon="-5.80304">
        <ele>2050.436</ele>
        <time>2011-04-22T11:30:00Z</time>
      </trkpt>
      <trkpt lat="31.71784" lon="-5.80297">
        <ele>2050.616</ele>
        <time>2011-04-22T11:30:08Z</time>
      </trkpt>
      <trkpt lat="31.71365" lon="-5.80524">
        <ele>2019.606</ele>
        <time>2011-04-22T11:30:43Z</time>
      </trkpt>
      <trkpt lat="31.71171" lon="-5.80368">
        <ele>2016.57</ele>
        <time>2011-04-22T11:31:15Z</time>
      </trkpt>
      <trkpt lat="31.708" lon="-5.80658">
        <ele>2006.04</ele>
        <time>2011-04-22T11:31:46Z</time>
      </trkpt>
      <trkpt lat="31.70569" lon="-5.80939">
        <ele>1998.728</ele>
        <time>2011-04-22T11:32:09Z</time>
      </trkpt>
      <trkpt lat="31.70299" lon="-5.81255">
        <ele>1979.053</ele>
        <time>2011-04-22T11:32:34Z</time>
      </trkpt>
      <trkpt lat="31.70111" lon="-5.81268">
        <ele>1964.334</ele>
        <time>2011-04-22T11:33:14Z</time>
      </trkpt>
      <trkpt lat="31.70005" lon="-5.81374">
        <ele>1964.966</ele>
        <time>2011-04-22T11:33:31Z</time>
      </trkpt>
      <trkpt lat="31.69955" lon="-5.8153">
        <ele>1966.06</ele>
        <time>2011-04-22T11:33:47Z</time>
      </trkpt>
      <trkpt lat="31.6982" lon="-5.81662">
        <ele>1971.745</ele>
        <time>2011-04-22T11:34:07Z</time>
      </trkpt>
      <trkpt lat="31.69698" lon="-5.81719">
        <ele>1972.276</ele>
        <time>2011-04-22T11:34:25Z</time>
      </trkpt>
      <trkpt lat="31.69628" lon="-5.81747">
        <ele>1969.464</ele>
        <time>2011-04-22T11:34:36Z</time>
      </trkpt>
      <trkpt lat="31.69584" lon="-5.81928">
        <ele>1969.261</ele>
        <time>2011-04-22T11:34:57Z</time>
      </trkpt>
      <trkpt lat="31.69267" lon="-5.82514">
        <ele>1961.9</ele>
        <time>2011-04-22T11:35:54Z</time>
      </trkpt>
      <trkpt lat="31.6873" lon="-5.82541">
        <ele>1943.769</ele>
        <time>2011-04-22T11:36:39Z</time>
      </trkpt>
      <trkpt lat="31.68444" lon="-5.82775">
        <ele>1947.69</ele>
        <time>2011-04-22T11:37:07Z</time>
      </trkpt>
      <trkpt lat="31.67869" lon="-5.8337">
        <ele>1935.211</ele>
        <time>2011-04-22T11:38:06Z</time>
      </trkpt>
      <trkpt lat="31.67338" lon="-5.83395">
        <ele>1930.352</ele>
        <time>2011-04-22T11:38:46Z</time>
      </trkpt>
      <trkpt lat="31.67249" lon="-5.83223">
        <ele>1928.01</ele>
        <time>2011-04-22T11:39:06Z</time>
      </trkpt>
      <trkpt lat="31.67229" lon="-5.82996">
        <ele>1925.731</ele>
        <time>2011-04-22T11:39:32Z</time>
      </trkpt>
      <trkpt lat="31.67009" lon="-5.83249">
        <ele>1926.196</ele>
        <time>2011-04-22T11:39:59Z</time>
      </trkpt>
      <trkpt lat="31.66938" lon="-5.83272">
        <ele>1925.929</ele>
        <time>2011-04-22T11:40:06Z</time>
      </trkpt>
      <trkpt lat="31.66697" lon="-5.83017">
        <ele>1940.026</ele>
        <time>2011-04-22T11:40:34Z</time>
      </trkpt>
      <trkpt lat="31.66648" lon="-5.83039">
        <ele>1947.59</ele>
        <time>2011-04-22T11:40:41Z</time>
      </trkpt>
      <trkpt lat="31.66685" lon="-5.83083">
        <ele>1955.15</ele>
        <time>2011-04-22T11:40:47Z</time>
      </trkpt>
      <trkpt lat="31.66694" lon="-5.83092">
        <ele>1956.645</ele>
        <time>2011-04-22T11:40:48Z</time>
      </trkpt>
      <trkpt lat="31.66671" lon="-5.83187">
        <ele>1960.073</ele>
        <time>2011-04-22T11:40:57Z</time>
      </trkpt>
      <trkpt lat="31.66322" lon="-5.83035">
        <ele>1997.33</ele>
        <time>2011-04-22T11:41:23Z</time>
      </trkpt>
      <trkpt lat="31.66321" lon="-5.83129">
        <ele>2006.793</ele>
        <time>2011-04-22T11:41:36Z</time>
      </trkpt>
      <trkpt lat="31.66395" lon="-5.83294">
        <ele>1997.866</ele>
        <time>2011-04-22T11:41:50Z</time>
      </trkpt>
      <trkpt lat="31.66365" lon="-5.83605">
        <ele>1992.878</ele>
        <time>2011-04-22T11:42:25Z</time>
      </trkpt>
      <trkpt lat="31.65981" lon="-5.83735">
        <ele>2010.618</ele>
        <time>2011-04-22T11:52:48Z</time>
      </trkpt>
      <trkpt lat="31.65975" lon="-5.83811">
        <ele>2009.746</ele>
        <time>2011-04-22T11:52:50Z</time>
      </trkpt>
      <trkpt lat="31.65897" lon="-5.8377">
        <ele>2016.613</ele>
        <time>2011-04-22T11:52:59Z</time>
      </trkpt>
      <trkpt lat="31.65696" lon="-5.84027">
        <ele>2040.934</ele>
        <time>2011-04-22T11:53:26Z</time>
      </trkpt>
      <trkpt lat="31.65596" lon="-5.84408">
        <ele>2045.761</ele>
        <time>2011-04-22T11:53:56Z</time>
      </trkpt>
      <trkpt lat="31.65479" lon="-5.845">
        <ele>2052.199</ele>
        <time>2011-04-22T11:54:09Z</time>
      </trkpt>
      <trkpt lat="31.65202" lon="-5.84348">
        <ele>2039.878</ele>
        <time>2011-04-22T11:54:38Z</time>
      </trkpt>
      <trkpt lat="31.65157" lon="-5.84664">
        <ele>2021.5</ele>
        <time>2011-04-22T11:55:13Z</time>
      </trkpt>
      <trkpt lat="31.65185" lon="-5.84661">
        <ele>2017.999</ele>
        <time>2011-04-22T11:55:15Z</time>
      </trkpt>
      <trkpt lat="31.65102" lon="-5.84746">
        <ele>2013.449</ele>
        <time>2011-04-22T11:55:28Z</time>
      </trkpt>
      <trkpt lat="31.65067" lon="-5.84637">
        <ele>1997.274</ele>
        <time>2011-04-22T11:55:52Z</time>
      </trkpt>
      <trkpt lat="31.64915" lon="-5.84574">
        <ele>1990.202</ele>
        <time>2011-04-22T11:56:04Z</time>
      </trkpt>
      <trkpt lat="31.64875" lon="-5.84551">
        <ele>1985.802</ele>
        <time>2011-04-22T11:56:07Z</time>
      </trkpt>
      <trkpt lat="31.64859" lon="-5.84407">
        <ele>1974.991</ele>
        <time>2011-04-22T11:56:20Z</time>
      </trkpt>
      <trkpt lat="31.64785" lon="-5.84333">
        <ele>1971.075</ele>
        <time>2011-04-22T11:56:28Z</time>
      </trkpt>
      <trkpt lat="31.64705" lon="-5.84241">
        <ele>1962.08</ele>
        <time>2011-04-22T11:56:39Z</time>
      </trkpt>
      <trkpt lat="31.64791" lon="-5.84414">
        <ele>1946.306</ele>
        <time>2011-04-22T11:57:05Z</time>
      </trkpt>
      <trkpt lat="31.64753" lon="-5.84524">
        <ele>1945.068</ele>
        <time>2011-04-22T11:57:07Z</time>
      </trkpt>
      <trkpt lat="31.64726" lon="-5.84437">
        <ele>1939.151</ele>
        <time>2011-04-22T11:57:18Z</time>
      </trkpt>
      <trkpt lat="31.64528" lon="-5.8429">
        <ele>1926.796</ele>
        <time>2011-04-22T11:57:42Z</time>
      </trkpt>
      <trkpt lat="31.64296" lon="-5.8411">
        <ele>1909.368</ele>
        <time>2011-04-22T11:58:02Z</time>
      </trkpt>
      <trkpt lat="31.64247" lon="-5.84104">
        <ele>1902.816</ele>
        <time>2011-04-22T11:58:07Z</time>
      </trkpt>
      <trkpt lat="31.64256" lon="-5.84235">
        <ele>1887.518</ele>
        <time>2011-04-22T11:58:26Z</time>
      </trkpt>
      <trkpt lat="31.64179" lon="-5.84086">
        <ele>1882.018</ele>
        <time>2011-04-22T11:58:42Z</time>
      </trkpt>
      <trkpt lat="31.64113" lon="-5.84047">
        <ele>1879.451</ele>
        <time>2011-04-22T11:58:45Z</time>
      </trkpt>
      <trkpt lat="31.64164" lon="-5.84238">
        <ele>1862.139</ele>
        <time>2011-04-22T11:59:16Z</time>
      </trkpt>
      <trkpt lat="31.6396" lon="-5.84106">
        <ele>1853.361</ele>
        <time>2011-04-22T11:59:48Z</time>
      </trkpt>
      <trkpt lat="31.63589" lon="-5.84084">
        <ele>1850.339</ele>
        <time>2011-04-22T12:00:49Z</time>
      </trkpt>
      <trkpt lat="31.6339" lon="-5.83935">
        <ele>1847.949</ele>
        <time>2011-04-22T12:01:11Z</time>
      </trkpt>
      <trkpt lat="31.63323" lon="-5.84008">
        <ele>1849.444</ele>
        <time>2011-04-22T12:01:16Z</time>
      </trkpt>
      <trkpt lat="31.6321" lon="-5.84017">
        <ele>1848.781</ele>
        <time>2011-04-22T12:01:24Z</time>
      </trkpt>
      <trkpt lat="31.63069" lon="-5.83955">
        <ele>1852.987</ele>
        <time>2011-04-22T12:01:35Z</time>
      </trkpt>
      <trkpt lat="31.63037" lon="-5.83895">
        <ele>1850.091</ele>
        <time>2011-04-22T12:01:38Z</time>
      </trkpt>
      <trkpt lat="31.62978" lon="-5.84014">
        <ele>1851.812</ele>
        <time>2011-04-22T12:01:45Z</time>
      </trkpt>
      <trkpt lat="31.63045" lon="-5.84224">
        <ele>1841.038</ele>
        <time>2011-04-22T12:01:58Z</time>
      </trkpt>
      <trkpt lat="31.63038" lon="-5.84512">
        <ele>1843.82</ele>
        <time>2011-04-22T12:02:25Z</time>
      </trkpt>
      <trkpt lat="31.62925" lon="-5.84803">
        <ele>1833.276</ele>
        <time>2011-04-22T12:02:50Z</time>
      </trkpt>
      <trkpt lat="31.62885" lon="-5.84852">
        <ele>1832.491</ele>
        <time>2011-04-22T12:02:58Z</time>
      </trkpt>
      <trkpt lat="31.62699" lon="-5.84831">
        <ele>1836.187</ele>
        <time>2011-04-22T12:03:12Z</time>
      </trkpt>
      <trkpt lat="31.62496" lon="-5.84751">
        <ele>1836.712</ele>
        <time>2011-04-22T12:03:31Z</time>
      </trkpt>
      <trkpt lat="31.62305" lon="-5.84841">
        <ele>1834.113</ele>
        <time>2011-04-22T12:03:48Z</time>
      </trkpt>
      <trkpt lat="31.6209" lon="-5.85203">
        <ele>1833.834</ele>
        <time>2011-04-22T12:04:13Z</time>
      </trkpt>
      <trkpt lat="31.62144" lon="-5.85542">
        <ele>1826.872</ele>
        <time>2011-04-22T12:04:37Z</time>
      </trkpt>
      <trkpt lat="31.62101" lon="-5.85621">
        <ele>1824.523</ele>
        <time>2011-04-22T12:04:44Z</time>
      </trkpt>
      <trkpt lat="31.61792" lon="-5.85519">
        <ele>1820.23</ele>
        <time>2011-04-22T12:05:07Z</time>
      </trkpt>
      <trkpt lat="31.61604" lon="-5.85824">
        <ele>1844.179</ele>
        <time>2011-04-22T12:05:32Z</time>
      </trkpt>
      <trkpt lat="31.61487" lon="-5.85916">
        <ele>1845.091</ele>
        <time>2011-04-22T12:05:44Z</time>
      </trkpt>
      <trkpt lat="31.61227" lon="-5.85865">
        <ele>1841.16</ele>
        <time>2011-04-22T12:06:04Z</time>
      </trkpt>
      <trkpt lat="31.61041" lon="-5.85743">
        <ele>1823.796</ele>
        <time>2011-04-22T12:06:19Z</time>
      </trkpt>
      <trkpt lat="31.60817" lon="-5.85731">
        <ele>1817.302</ele>
        <time>2011-04-22T12:06:34Z</time>
      </trkpt>
      <trkpt lat="31.6059" lon="-5.85948">
        <ele>1809.811</ele>
        <time>2011-04-22T12:06:54Z</time>
      </trkpt>
      <trkpt lat="31.60576" lon="-5.8621">
        <ele>1812.074</ele>
        <time>2011-04-22T12:07:09Z</time>
      </trkpt>
      <trkpt lat="31.6048" lon="-5.86411">
        <ele>1812.997</ele>
        <time>2011-04-22T12:07:21Z</time>
      </trkpt>
      <trkpt lat="31.60378" lon="-5.86532">
        <ele>1807.67</ele>
        <time>2011-04-22T12:07:33Z</time>
      </trkpt>
      <trkpt lat="31.59777" lon="-5.86507">
        <ele>1796.953</ele>
        <time>2011-04-22T12:08:18Z</time>
      </trkpt>
      <trkpt lat="31.59542" lon="-5.86628">
        <ele>1801.536</ele>
        <time>2011-04-22T12:08:46Z</time>
      </trkpt>
      <trkpt lat="31.59459" lon="-5.86701">
        <ele>1800.609</ele>
        <time>2011-04-22T12:08:53Z</time>
      </trkpt>
      <trkpt lat="31.59324" lon="-5.86912">
        <ele>1797.442</ele>
        <time>2011-04-22T12:09:09Z</time>
      </trkpt>
      <trkpt lat="31.59341" lon="-5.87226">
        <ele>1802.333</ele>
        <time>2011-04-22T12:09:27Z</time>
      </trkpt>
      <trkpt lat="31.59374" lon="-5.87429">
        <ele>1792.907</ele>
        <time>2011-04-22T12:09:44Z</time>
      </trkpt>
      <trkpt lat="31.58607" lon="-5.87538">
        <ele>1797.915</ele>
        <time>2011-04-22T12:10:40Z</time>
      </trkpt>
      <trkpt lat="31.58342" lon="-5.87542">
        <ele>1791.571</ele>
        <time>2011-04-22T12:10:59Z</time>
      </trkpt>
      <trkpt lat="31.58187" lon="-5.87633">
        <ele>1785.606</ele>
        <time>2011-04-22T12:11:10Z</time>
      </trkpt>
      <trkpt lat="31.57955" lon="-5.87929">
        <ele>1778.251</ele>
        <time>2011-04-22T12:11:46Z</time>
      </trkpt>
      <trkpt lat="31.57908" lon="-5.88153">
        <ele>1784.127</ele>
        <time>2011-04-22T12:12:05Z</time>
      </trkpt>
      <trkpt lat="31.58045" lon="-5.88772">
        <ele>1786.093</ele>
        <time>2011-04-22T12:13:04Z</time>
      </trkpt>
      <trkpt lat="31.57886" lon="-5.88631">
        <ele>1769.495</ele>
        <time>2011-04-22T12:13:20Z</time>
      </trkpt>
      <trkpt lat="31.57704" lon="-5.88671">
        <ele>1770.594</ele>
        <time>2011-04-22T12:13:34Z</time>
      </trkpt>
      <trkpt lat="31.57447" lon="-5.89388">
        <ele>1780.889</ele>
        <time>2011-04-22T12:14:21Z</time>
      </trkpt>
      <trkpt lat="31.57068" lon="-5.89501">
        <ele>1790.211</ele>
        <time>2011-04-22T12:14:49Z</time>
      </trkpt>
      <trkpt lat="31.56963" lon="-5.89716">
        <ele>1802.782</ele>
        <time>2011-04-22T12:15:04Z</time>
      </trkpt>
      <trkpt lat="31.56947" lon="-5.89847">
        <ele>1799.22</ele>
        <time>2011-04-22T12:15:13Z</time>
      </trkpt>
      <trkpt lat="31.56844" lon="-5.89762">
        <ele>1791.342</ele>
        <time>2011-04-22T12:15:32Z</time>
      </trkpt>
      <trkpt lat="31.56694" lon="-5.89948">
        <ele>1797.542</ele>
        <time>2011-04-22T12:15:50Z</time>
      </trkpt>
      <trkpt lat="31.56658" lon="-5.90005">
        <ele>1796.381</ele>
        <time>2011-04-22T12:15:55Z</time>
      </trkpt>
      <trkpt lat="31.5653" lon="-5.89991">
        <ele>1783.271</ele>
        <time>2011-04-22T12:16:13Z</time>
      </trkpt>
      <trkpt lat="31.56553" lon="-5.90319">
        <ele>1768.554</ele>
        <time>2011-04-22T12:16:35Z</time>
      </trkpt>
      <trkpt lat="31.56388" lon="-5.90703">
        <ele>1749.414</ele>
        <time>2011-04-22T12:17:06Z</time>
      </trkpt>
      <trkpt lat="31.5615" lon="-5.90661">
        <ele>1741.18</ele>
        <time>2011-04-22T12:17:30Z</time>
      </trkpt>
      <trkpt lat="31.56029" lon="-5.90742">
        <ele>1737.679</ele>
        <time>2011-04-22T12:17:42Z</time>
      </trkpt>
      <trkpt lat="31.55987" lon="-5.90794">
        <ele>1735.791</ele>
        <time>2011-04-22T12:17:46Z</time>
      </trkpt>
      <trkpt lat="31.55809" lon="-5.9094">
        <ele>1724.236</ele>
        <time>2011-04-22T12:18:05Z</time>
      </trkpt>
      <trkpt lat="31.55235" lon="-5.90755">
        <ele>1718.01</ele>
        <time>2011-04-22T12:22:09Z</time>
      </trkpt>
      <trkpt lat="31.54878" lon="-5.91124">
        <ele>1732.09</ele>
        <time>2011-04-22T14:34:25Z</time>
      </trkpt>
      <trkpt lat="31.54547" lon="-5.9135">
        <ele>1747.791</ele>
        <time>2011-04-22T14:34:55Z</time>
      </trkpt>
      <trkpt lat="31.54388" lon="-5.91391">
        <ele>1752.25</ele>
        <time>2011-04-22T14:35:05Z</time>
      </trkpt>
      <trkpt lat="31.54303" lon="-5.91526">
        <ele>1759.721</ele>
        <time>2011-04-22T14:35:15Z</time>
      </trkpt>
      <trkpt lat="31.54116" lon="-5.91661">
        <ele>1750.923</ele>
        <time>2011-04-22T14:35:33Z</time>
      </trkpt>
      <trkpt lat="31.54093" lon="-5.91776">
        <ele>1748.077</ele>
        <time>2011-04-22T14:35:45Z</time>
      </trkpt>
      <trkpt lat="31.5395" lon="-5.91777">
        <ele>1743.198</ele>
        <time>2011-04-22T14:35:56Z</time>
      </trkpt>
      <trkpt lat="31.53878" lon="-5.91895">
        <ele>1742.191</ele>
        <time>2011-04-22T14:36:06Z</time>
      </trkpt>
      <trkpt lat="31.53633" lon="-5.91987">
        <ele>1746.241</ele>
        <time>2011-04-22T14:37:52Z</time>
      </trkpt>
      <trkpt lat="31.53637" lon="-5.92074">
        <ele>1752.279</ele>
        <time>2011-04-22T14:38:01Z</time>
      </trkpt>
      <trkpt lat="31.53518" lon="-5.92272">
        <ele>1789.108</ele>
        <time>2011-04-22T14:38:35Z</time>
      </trkpt>
      <trkpt lat="31.53489" lon="-5.92353">
        <ele>1794.696</ele>
        <time>2011-04-22T14:38:43Z</time>
      </trkpt>
      <trkpt lat="31.53375" lon="-5.92294">
        <ele>1809.461</ele>
        <time>2011-04-22T14:38:59Z</time>
      </trkpt>
      <trkpt lat="31.53322" lon="-5.9233">
        <ele>1818.873</ele>
        <time>2011-04-22T14:39:08Z</time>
      </trkpt>
      <trkpt lat="31.53288" lon="-5.92374">
        <ele>1819.559</ele>
        <time>2011-04-22T14:39:15Z</time>
      </trkpt>
      <trkpt lat="31.53141" lon="-5.92361">
        <ele>1814.137</ele>
        <time>2011-04-22T14:39:40Z</time>
      </trkpt>
      <trkpt lat="31.53005" lon="-5.92515">
        <ele>1816.327</ele>
        <time>2011-04-22T14:40:47Z</time>
      </trkpt>
      <trkpt lat="31.52771" lon="-5.92485">
        <ele>1799.282</ele>
        <time>2011-04-22T14:41:21Z</time>
      </trkpt>
      <trkpt lat="31.52734" lon="-5.9252">
        <ele>1793.878</ele>
        <time>2011-04-22T14:42:21Z</time>
      </trkpt>
      <trkpt lat="31.52899" lon="-5.92509">
        <ele>1783.013</ele>
        <time>2011-04-22T14:42:45Z</time>
      </trkpt>
      <trkpt lat="31.52905" lon="-5.92533">
        <ele>1777.802</ele>
        <time>2011-04-22T14:42:52Z</time>
      </trkpt>
      <trkpt lat="31.52804" lon="-5.92573">
        <ele>1772.032</ele>
        <time>2011-04-22T14:43:41Z</time>
      </trkpt>
      <trkpt lat="31.52724" lon="-5.92595">
        <ele>1738.383</ele>
        <time>2011-04-22T14:43:54Z</time>
      </trkpt>
      <trkpt lat="31.52677" lon="-5.92581">
        <ele>1728.044</ele>
        <time>2011-04-22T14:44:06Z</time>
      </trkpt>
      <trkpt lat="31.52496" lon="-5.92669">
        <ele>1712.644</ele>
        <time>2011-04-22T14:44:37Z</time>
      </trkpt>
      <trkpt lat="31.51884" lon="-5.93161">
        <ele>1695.677</ele>
        <time>2011-04-22T14:47:27Z</time>
      </trkpt>
      <trkpt lat="31.51405" lon="-5.93413">
        <ele>1693.262</ele>
        <time>2011-04-22T14:48:01Z</time>
      </trkpt>
      <trkpt lat="31.51304" lon="-5.93485">
        <ele>1690.268</ele>
        <time>2011-04-22T14:48:09Z</time>
      </trkpt>
      <trkpt lat="31.5086" lon="-5.94056">
        <ele>1690.344</ele>
        <time>2011-04-22T14:48:59Z</time>
      </trkpt>
      <trkpt lat="31.50732" lon="-5.94341">
        <ele>1684.693</ele>
        <time>2011-04-22T14:49:23Z</time>
      </trkpt>
      <trkpt lat="31.50478" lon="-5.94501">
        <ele>1678.615</ele>
        <time>2011-04-22T14:49:50Z</time>
      </trkpt>
      <trkpt lat="31.5043" lon="-5.94623">
        <ele>1677.077</ele>
        <time>2011-04-22T14:50:02Z</time>
      </trkpt>
      <trkpt lat="31.5001" lon="-5.94648">
        <ele>1687.467</ele>
        <time>2011-04-22T14:50:40Z</time>
      </trkpt>
      <trkpt lat="31.4978" lon="-5.94751">
        <ele>1680.853</ele>
        <time>2011-04-22T14:50:59Z</time>
      </trkpt>
      <trkpt lat="31.49626" lon="-5.9498">
        <ele>1676.438</ele>
        <time>2011-04-22T14:51:19Z</time>
      </trkpt>
      <trkpt lat="31.49475" lon="-5.9509">
        <ele>1676.769</ele>
        <time>2011-04-22T14:51:35Z</time>
      </trkpt>
      <trkpt lat="31.49464" lon="-5.95096">
        <ele>1675.824</ele>
        <time>2011-04-22T14:51:36Z</time>
      </trkpt>
      <trkpt lat="31.49031" lon="-5.95171">
        <ele>1670.492</ele>
        <time>2011-04-22T14:52:14Z</time>
      </trkpt>
      <trkpt lat="31.48729" lon="-5.95526">
        <ele>1669.396</ele>
        <time>2011-04-22T14:52:53Z</time>
      </trkpt>
      <trkpt lat="31.4848" lon="-5.9565">
        <ele>1670.766</ele>
        <time>2011-04-22T14:53:15Z</time>
      </trkpt>
      <trkpt lat="31.48079" lon="-5.96037">
        <ele>1675.615</ele>
        <time>2011-04-22T14:53:59Z</time>
      </trkpt>
      <trkpt lat="31.47981" lon="-5.96099">
        <ele>1675.966</ele>
        <time>2011-04-22T14:54:08Z</time>
      </trkpt>
      <trkpt lat="31.47761" lon="-5.96179">
        <ele>1664.889</ele>
        <time>2011-04-22T14:54:26Z</time>
      </trkpt>
      <trkpt lat="31.47682" lon="-5.96333">
        <ele>1662.704</ele>
        <time>2011-04-22T14:54:38Z</time>
      </trkpt>
      <trkpt lat="31.47484" lon="-5.9652">
        <ele>1662.233</ele>
        <time>2011-04-22T14:54:57Z</time>
      </trkpt>
      <trkpt lat="31.47135" lon="-5.96631">
        <ele>1662.09</ele>
        <time>2011-04-22T14:55:21Z</time>
      </trkpt>
      <trkpt lat="31.4702" lon="-5.96726">
        <ele>1661.847</ele>
        <time>2011-04-22T14:55:32Z</time>
      </trkpt>
      <trkpt lat="31.46806" lon="-5.9674">
        <ele>1662.853</ele>
        <time>2011-04-22T14:55:52Z</time>
      </trkpt>
      <trkpt lat="31.46356" lon="-5.97212">
        <ele>1654.034</ele>
        <time>2011-04-22T14:56:36Z</time>
      </trkpt>
      <trkpt lat="31.4597" lon="-5.97492">
        <ele>1654.295</ele>
        <time>2011-04-22T14:57:06Z</time>
      </trkpt>
      <trkpt lat="31.4588" lon="-5.97499">
        <ele>1653.945</ele>
        <time>2011-04-22T14:57:13Z</time>
      </trkpt>
      <trkpt lat="31.45798" lon="-5.97626">
        <ele>1658.263</ele>
        <time>2011-04-22T14:57:29Z</time>
      </trkpt>
      <trkpt lat="31.45647" lon="-5.97528">
        <ele>1667.022</ele>
        <time>2011-04-22T14:57:50Z</time>
      </trkpt>
      <trkpt lat="31.45387" lon="-5.97241">
        <ele>1654.341</ele>
        <time>2011-04-22T14:58:19Z</time>
      </trkpt>
      <trkpt lat="31.45268" lon="-5.96941">
        <ele>1646.39</ele>
        <time>2011-04-22T14:58:40Z</time>
      </trkpt>
      <trkpt lat="31.45123" lon="-5.96922">
        <ele>1644.202</ele>
        <time>2011-04-22T14:58:55Z</time>
      </trkpt>
      <trkpt lat="31.44937" lon="-5.97037">
        <ele>1656.881</ele>
        <time>2011-04-22T14:59:13Z</time>
      </trkpt>
      <trkpt lat="31.4492" lon="-5.97195">
        <ele>1661.01</ele>
        <time>2011-04-22T14:59:23Z</time>
      </trkpt>
      <trkpt lat="31.44795" lon="-5.9731">
        <ele>1663.778</ele>
        <time>2011-04-22T14:59:38Z</time>
      </trkpt>
      <trkpt lat="31.44771" lon="-5.97398">
        <ele>1666.916</ele>
        <time>2011-04-22T14:59:46Z</time>
      </trkpt>
      <trkpt lat="31.44884" lon="-5.97606">
        <ele>1664.38</ele>
        <time>2011-04-22T15:00:04Z</time>
      </trkpt>
      <trkpt lat="31.44852" lon="-5.97774">
        <ele>1663.521</ele>
        <time>2011-04-22T15:00:19Z</time>
      </trkpt>
      <trkpt lat="31.44912" lon="-5.97878">
        <ele>1661.788</ele>
        <time>2011-04-22T15:00:38Z</time>
      </trkpt>
      <trkpt lat="31.44802" lon="-5.9804">
        <ele>1660.664</ele>
        <time>2011-04-22T15:01:57Z</time>
      </trkpt>
      <trkpt lat="31.44675" lon="-5.98072">
        <ele>1666.309</ele>
        <time>2011-04-22T15:02:15Z</time>
      </trkpt>
      <trkpt lat="31.44663" lon="-5.98093">
        <ele>1666.429</ele>
        <time>2011-04-22T15:02:17Z</time>
      </trkpt>
      <trkpt lat="31.44621" lon="-5.98142">
        <ele>1663.145</ele>
        <time>2011-04-22T15:02:23Z</time>
      </trkpt>
      <trkpt lat="31.44623" lon="-5.9829">
        <ele>1652.399</ele>
        <time>2011-04-22T15:02:37Z</time>
      </trkpt>
      <trkpt lat="31.44513" lon="-5.98435">
        <ele>1642.498</ele>
        <time>2011-04-22T15:02:51Z</time>
      </trkpt>
      <trkpt lat="31.44411" lon="-5.98709">
        <ele>1634.192</ele>
        <time>2011-04-22T15:03:14Z</time>
      </trkpt>
      <trkpt lat="31.44189" lon="-5.98833">
        <ele>1640.915</ele>
        <time>2011-04-22T15:03:40Z</time>
      </trkpt>
      <trkpt lat="31.44002" lon="-5.99184">
        <ele>1632.39</ele>
        <time>2011-04-22T15:04:15Z</time>
      </trkpt>
      <trkpt lat="31.43975" lon="-5.99196">
        <ele>1636.517</ele>
        <time>2011-04-22T15:04:21Z</time>
      </trkpt>
      <trkpt lat="31.43925" lon="-5.99088">
        <ele>1645.032</ele>
        <time>2011-04-22T15:04:38Z</time>
      </trkpt>
      <trkpt lat="31.4385" lon="-5.99366">
        <ele>1670.62</ele>
        <time>2011-04-22T15:05:05Z</time>
      </trkpt>
      <trkpt lat="31.43751" lon="-5.99594">
        <ele>1652.724</ele>
        <time>2011-04-22T15:05:28Z</time>
      </trkpt>
      <trkpt lat="31.437" lon="-6.00268">
        <ele>1648.988</ele>
        <time>2011-04-22T15:06:23Z</time>
      </trkpt>
      <trkpt lat="31.43744" lon="-6.00419">
        <ele>1650.341</ele>
        <time>2011-04-22T15:06:42Z</time>
      </trkpt>
      <trkpt lat="31.43817" lon="-6.0052">
        <ele>1641.717</ele>
        <time>2011-04-22T15:06:56Z</time>
      </trkpt>
      <trkpt lat="31.43789" lon="-6.00709">
        <ele>1647.928</ele>
        <time>2011-04-22T15:07:18Z</time>
      </trkpt>
      <trkpt lat="31.43938" lon="-6.00842">
        <ele>1664.601</ele>
        <time>2011-04-22T15:07:40Z</time>
      </trkpt>
      <trkpt lat="31.44052" lon="-6.01061">
        <ele>1677.054</ele>
        <time>2011-04-22T15:08:43Z</time>
      </trkpt>
      <trkpt lat="31.44307" lon="-6.01211">
        <ele>1683.309</ele>
        <time>2011-04-22T15:09:15Z</time>
      </trkpt>
      <trkpt lat="31.44414" lon="-6.01423">
        <ele>1669.25</ele>
        <time>2011-04-22T15:09:35Z</time>
      </trkpt>
      <trkpt lat="31.44407" lon="-6.01373">
        <ele>1665.16</ele>
        <time>2011-04-22T15:09:40Z</time>
      </trkpt>
      <trkpt lat="31.44284" lon="-6.01313">
        <ele>1671.356</ele>
        <time>2011-04-22T15:09:48Z</time>
      </trkpt>
      <trkpt lat="31.44117" lon="-6.01354">
        <ele>1679.88</ele>
        <time>2011-04-22T15:09:59Z</time>
      </trkpt>
      <trkpt lat="31.4407" lon="-6.01365">
        <ele>1679.597</ele>
        <time>2011-04-22T15:10:02Z</time>
      </trkpt>
      <trkpt lat="31.43786" lon="-6.01519">
        <ele>1659.938</ele>
        <time>2011-04-22T15:10:30Z</time>
      </trkpt>
      <trkpt lat="31.43676" lon="-6.01141">
        <ele>1636.406</ele>
        <time>2011-04-22T15:11:03Z</time>
      </trkpt>
      <trkpt lat="31.43462" lon="-6.01118">
        <ele>1630.302</ele>
        <time>2011-04-22T15:11:28Z</time>
      </trkpt>
      <trkpt lat="31.43452" lon="-6.01256">
        <ele>1628.426</ele>
        <time>2011-04-22T15:12:54Z</time>
      </trkpt>
      <trkpt lat="31.43243" lon="-6.01385">
        <ele>1640.012</ele>
        <time>2011-04-22T15:13:13Z</time>
      </trkpt>
      <trkpt lat="31.4318" lon="-6.01432">
        <ele>1643.228</ele>
        <time>2011-04-22T15:13:20Z</time>
      </trkpt>
      <trkpt lat="31.42993" lon="-6.01392">
        <ele>1631.394</ele>
        <time>2011-04-22T15:13:46Z</time>
      </trkpt>
      <trkpt lat="31.42718" lon="-6.01473">
        <ele>1602.618</ele>
        <time>2011-04-22T15:14:16Z</time>
      </trkpt>
      <trkpt lat="31.42426" lon="-6.01247">
        <ele>1616.526</ele>
        <time>2011-04-22T15:14:40Z</time>
      </trkpt>
      <trkpt lat="31.42366" lon="-6.01132">
        <ele>1612.828</ele>
        <time>2011-04-22T15:14:51Z</time>
      </trkpt>
      <trkpt lat="31.42204" lon="-6.01128">
        <ele>1615.409</ele>
        <time>2011-04-22T15:15:06Z</time>
      </trkpt>
      <trkpt lat="31.41927" lon="-6.00612">
        <ele>1595.396</ele>
        <time>2011-04-22T15:15:46Z</time>
      </trkpt>
      <trkpt lat="31.41318" lon="-6.00217">
        <ele>1588.878</ele>
        <time>2011-04-22T15:16:42Z</time>
      </trkpt>
      <trkpt lat="31.41277" lon="-6.00308">
        <ele>1586.881</ele>
        <time>2011-04-22T15:16:52Z</time>
      </trkpt>
      <trkpt lat="31.41235" lon="-6.00259">
        <ele>1586.771</ele>
        <time>2011-04-22T15:16:58Z</time>
      </trkpt>
      <trkpt lat="31.41254" lon="-5.99954">
        <ele>1586.164</ele>
        <time>2011-04-22T15:17:16Z</time>
      </trkpt>
      <trkpt lat="31.41489" lon="-5.99639">
        <ele>1587.511</ele>
        <time>2011-04-22T15:17:39Z</time>
      </trkpt>
      <trkpt lat="31.41521" lon="-5.99565">
        <ele>1583.707</ele>
        <time>2011-04-22T15:17:47Z</time>
      </trkpt>
      <trkpt lat="31.41362" lon="-5.99454">
        <ele>1579.905</ele>
        <time>2011-04-22T15:18:03Z</time>
      </trkpt>
      <trkpt lat="31.41324" lon="-5.99128">
        <ele>1578.973</ele>
        <time>2011-04-22T15:18:24Z</time>
      </trkpt>
      <trkpt lat="31.41253" lon="-5.99001">
        <ele>1578.961</ele>
        <time>2011-04-22T15:18:33Z</time>
      </trkpt>
      <trkpt lat="31.41084" lon="-5.98997">
        <ele>1575.84</ele>
        <time>2011-04-22T15:18:45Z</time>
      </trkpt>
      <trkpt lat="31.40688" lon="-5.99231">
        <ele>1574.504</ele>
        <time>2011-04-22T15:19:19Z</time>
      </trkpt>
      <trkpt lat="31.40074" lon="-5.9897">
        <ele>1580.796</ele>
        <time>2011-04-22T15:20:13Z</time>
      </trkpt>
      <trkpt lat="31.39914" lon="-5.9899">
        <ele>1580.059</ele>
        <time>2011-04-22T15:20:26Z</time>
      </trkpt>
      <trkpt lat="31.39368" lon="-5.99251">
        <ele>1566.146</ele>
        <time>2011-04-22T15:21:12Z</time>
      </trkpt>
      <trkpt lat="31.39119" lon="-5.99268">
        <ele>1566.12</ele>
        <time>2011-04-22T15:21:27Z</time>
      </trkpt>
      <trkpt lat="31.38961" lon="-5.99223">
        <ele>1565.907</ele>
        <time>2011-04-22T15:21:37Z</time>
      </trkpt>
      <trkpt lat="31.38776" lon="-5.99038">
        <ele>1555.222</ele>
        <time>2011-04-22T15:21:54Z</time>
      </trkpt>
      <trkpt lat="31.38657" lon="-5.99026">
        <ele>1554.259</ele>
        <time>2011-04-22T15:22:04Z</time>
      </trkpt>
      <trkpt lat="31.38289" lon="-5.99241">
        <ele>1560.938</ele>
        <time>2011-04-22T15:22:36Z</time>
      </trkpt>
      <trkpt lat="31.37879" lon="-5.99325">
        <ele>1568.538</ele>
        <time>2011-04-22T15:22:57Z</time>
      </trkpt>
      <trkpt lat="31.37463" lon="-5.99235">
        <ele>1548.768</ele>
        <time>2011-04-22T15:23:41Z</time>
      </trkpt>
      <trkpt lat="31.37443" lon="-5.98851">
        <ele>1545.524</ele>
        <time>2011-04-22T15:24:16Z</time>
      </trkpt>
      <trkpt lat="31.37187" lon="-5.98583">
        <ele>1564.708</ele>
        <time>2011-04-22T15:31:42Z</time>
      </trkpt>
      <trkpt lat="31.37053" lon="-5.98569">
        <ele>1574.623</ele>
        <time>2011-04-22T15:31:57Z</time>
      </trkpt>
      <trkpt lat="31.36822" lon="-5.98685">
        <ele>1592.547</ele>
        <time>2011-04-22T15:32:19Z</time>
      </trkpt>
      <trkpt lat="31.36787" lon="-5.98686">
        <ele>1593.785</ele>
        <time>2011-04-22T15:32:22Z</time>
      </trkpt>
      <trkpt lat="31.36684" lon="-5.98676">
        <ele>1594.62</ele>
        <time>2011-04-22T15:32:34Z</time>
      </trkpt>
      <trkpt lat="31.36671" lon="-5.98593">
        <ele>1597.003</ele>
        <time>2011-04-22T15:33:02Z</time>
      </trkpt>
      <trkpt lat="31.36637" lon="-5.98678">
        <ele>1604.004</ele>
        <time>2011-04-22T16:43:55Z</time>
      </trkpt>
      <trkpt lat="31.36781" lon="-5.98128">
        <ele>1592.301</ele>
        <time>2011-04-22T16:45:47Z</time>
      </trkpt>
      <trkpt lat="31.36419" lon="-5.9153">
        <ele>1573.285</ele>
        <time>2011-04-22T16:54:10Z</time>
      </trkpt>
      <trkpt lat="31.36437" lon="-5.9091">
        <ele>1572.094</ele>
        <time>2011-04-22T16:54:31Z</time>
      </trkpt>
      <trkpt lat="31.37514" lon="-5.88637">
        <ele>1544.094</ele>
        <time>2011-04-22T16:55:57Z</time>
      </trkpt>
      <trkpt lat="31.37555" lon="-5.88463">
        <ele>1543.314</ele>
        <time>2011-04-22T16:56:04Z</time>
      </trkpt>
      <trkpt lat="31.36848" lon="-5.85707">
        <ele>1514.357</ele>
        <time>2011-04-22T16:57:41Z</time>
      </trkpt>
      <trkpt lat="31.36796" lon="-5.8531">
        <ele>1511.496</ele>
        <time>2011-04-22T16:57:55Z</time>
      </trkpt>
      <trkpt lat="31.3708" lon="-5.83953">
        <ele>1497.074</ele>
        <time>2011-04-22T16:58:41Z</time>
      </trkpt>
      <trkpt lat="31.37241" lon="-5.83397">
        <ele>1497.369</ele>
        <time>2011-04-22T16:59:01Z</time>
      </trkpt>
      <trkpt lat="31.374" lon="-5.83085">
        <ele>1500.168</ele>
        <time>2011-04-22T16:59:14Z</time>
      </trkpt>
      <trkpt lat="31.37587" lon="-5.82081">
        <ele>1505.704</ele>
        <time>2011-04-22T16:59:48Z</time>
      </trkpt>
      <trkpt lat="31.37654" lon="-5.81669">
        <ele>1496.933</ele>
        <time>2011-04-22T17:00:02Z</time>
      </trkpt>
      <trkpt lat="31.38283" lon="-5.80549">
        <ele>1478.127</ele>
        <time>2011-04-22T17:00:49Z</time>
      </trkpt>
      <trkpt lat="31.38256" lon="-5.80386">
        <ele>1471.804</ele>
        <time>2011-04-22T17:00:56Z</time>
      </trkpt>
      <trkpt lat="31.38024" lon="-5.80128">
        <ele>1476.526</ele>
        <time>2011-04-22T17:01:10Z</time>
      </trkpt>
      <trkpt lat="31.37863" lon="-5.79993">
        <ele>1469.764</ele>
        <time>2011-04-22T17:01:19Z</time>
      </trkpt>
      <trkpt lat="31.37206" lon="-5.79682">
        <ele>1454.731</ele>
        <time>2011-04-22T17:02:02Z</time>
      </trkpt>
      <trkpt lat="31.36979" lon="-5.78959">
        <ele>1443.714</ele>
        <time>2011-04-22T17:02:37Z</time>
      </trkpt>
      <trkpt lat="31.37069" lon="-5.78546">
        <ele>1446.714</ele>
        <time>2011-04-22T17:02:57Z</time>
      </trkpt>
      <trkpt lat="31.37197" lon="-5.77994">
        <ele>1439.668</ele>
        <time>2011-04-22T17:03:21Z</time>
      </trkpt>
      <trkpt lat="31.38289" lon="-5.76547">
        <ele>1427.36</ele>
        <time>2011-04-22T17:04:29Z</time>
      </trkpt>
      <trkpt lat="31.38812" lon="-5.75307">
        <ele>1420.954</ele>
        <time>2011-04-22T17:05:15Z</time>
      </trkpt>
      <trkpt lat="31.38924" lon="-5.74717">
        <ele>1417.35</ele>
        <time>2011-04-22T17:05:36Z</time>
      </trkpt>
      <trkpt lat="31.38961" lon="-5.74599">
        <ele>1413.311</ele>
        <time>2011-04-22T17:05:41Z</time>
      </trkpt>
      <trkpt lat="31.39208" lon="-5.74313">
        <ele>1411.941</ele>
        <time>2011-04-22T17:05:55Z</time>
      </trkpt>
      <trkpt lat="31.39391" lon="-5.74162">
        <ele>1409.284</ele>
        <time>2011-04-22T17:06:04Z</time>
      </trkpt>
      <trkpt lat="31.39481" lon="-5.74066">
        <ele>1404.725</ele>
        <time>2011-04-22T17:06:09Z</time>
      </trkpt>
      <trkpt lat="31.39777" lon="-5.73312">
        <ele>1401.209</ele>
        <time>2011-04-22T17:06:38Z</time>
      </trkpt>
      <trkpt lat="31.40146" lon="-5.72803">
        <ele>1405.831</ele>
        <time>2011-04-22T17:07:02Z</time>
      </trkpt>
      <trkpt lat="31.4021" lon="-5.72697">
        <ele>1402.849</ele>
        <time>2011-04-22T17:07:06Z</time>
      </trkpt>
      <trkpt lat="31.40407" lon="-5.71953">
        <ele>1393.096</ele>
        <time>2011-04-22T17:07:32Z</time>
      </trkpt>
      <trkpt lat="31.41206" lon="-5.70643">
        <ele>1387.744</ele>
        <time>2011-04-22T17:08:40Z</time>
      </trkpt>
      <trkpt lat="31.41891" lon="-5.68745">
        <ele>1378.505</ele>
        <time>2011-04-22T17:09:51Z</time>
      </trkpt>
      <trkpt lat="31.42885" lon="-5.6695">
        <ele>1377.452</ele>
        <time>2011-04-22T17:11:02Z</time>
      </trkpt>
      <trkpt lat="31.43121" lon="-5.66268">
        <ele>1379.456</ele>
        <time>2011-04-22T17:11:28Z</time>
      </trkpt>
      <trkpt lat="31.43524" lon="-5.65461">
        <ele>1390.359</ele>
        <time>2011-04-22T17:12:00Z</time>
      </trkpt>
      <trkpt lat="31.43909" lon="-5.65046">
        <ele>1381.45</ele>
        <time>2011-04-22T17:12:21Z</time>
      </trkpt>
      <trkpt lat="31.43917" lon="-5.64282">
        <ele>1370.977</ele>
        <time>2011-04-22T17:12:47Z</time>
      </trkpt>
      <trkpt lat="31.44042" lon="-5.63888">
        <ele>1366.28</ele>
        <time>2011-04-22T17:13:01Z</time>
      </trkpt>
      <trkpt lat="31.45313" lon="-5.61062">
        <ele>1336.095</ele>
        <time>2011-04-22T17:14:45Z</time>
      </trkpt>
      <trkpt lat="31.46252" lon="-5.59281">
        <ele>1319.566</ele>
        <time>2011-04-22T17:15:55Z</time>
      </trkpt>
      <trkpt lat="31.4641" lon="-5.58765">
        <ele>1318.618</ele>
        <time>2011-04-22T17:16:13Z</time>
      </trkpt>
      <trkpt lat="31.46483" lon="-5.58575">
        <ele>1315.486</ele>
        <time>2011-04-22T17:16:20Z</time>
      </trkpt>
      <trkpt lat="31.47022" lon="-5.57606">
        <ele>1311.158</ele>
        <time>2011-04-22T17:16:57Z</time>
      </trkpt>
      <trkpt lat="31.48704" lon="-5.554">
        <ele>1308.017</ele>
        <time>2011-04-22T17:18:49Z</time>
      </trkpt>
      <trkpt lat="31.49313" lon="-5.54741">
        <ele>1299.802</ele>
        <time>2011-04-22T17:19:30Z</time>
      </trkpt>
      <trkpt lat="31.50433" lon="-5.54009">
        <ele>1301.952</ele>
        <time>2011-04-22T17:21:01Z</time>
      </trkpt>
      <trkpt lat="31.51" lon="-5.53868">
        <ele>1302.714</ele>
        <time>2011-04-22T17:21:49Z</time>
      </trkpt>
      <trkpt lat="31.51305" lon="-5.53938">
        <ele>1310.193</ele>
        <time>2011-04-22T17:22:18Z</time>
      </trkpt>
      <trkpt lat="31.51445" lon="-5.53858">
        <ele>1314.132</ele>
        <time>2011-04-22T17:22:34Z</time>
      </trkpt>
      <trkpt lat="31.51736" lon="-5.53601">
        <ele>1316.574</ele>
        <time>2011-04-22T17:23:03Z</time>
      </trkpt>
      <trkpt lat="31.52042" lon="-5.53327">
        <ele>1310.302</ele>
        <time>2011-04-22T17:23:47Z</time>
      </trkpt>
      <trkpt lat="31.52254" lon="-5.53006">
        <ele>1312.97</ele>
        <time>2011-04-22T17:24:33Z</time>
      </trkpt>
      <trkpt lat="31.52337" lon="-5.52926">
        <ele>1310.576</ele>
        <time>2011-04-22T17:24:47Z</time>
      </trkpt>
      <trkpt lat="31.52604" lon="-5.52997">
        <ele>1296.544</ele>
        <time>2011-04-22T17:25:26Z</time>
      </trkpt>
      <trkpt lat="31.52919" lon="-5.52874">
        <ele>1304.23</ele>
        <time>2011-04-22T17:25:51Z</time>
      </trkpt>
      <trkpt lat="31.52943" lon="-5.52866">
        <ele>1302.821</ele>
        <time>2011-04-22T17:25:53Z</time>
      </trkpt>
      <trkpt lat="31.53104" lon="-5.52984">
        <ele>1314.879</ele>
        <time>2011-04-22T17:26:11Z</time>
      </trkpt>
      <trkpt lat="31.53199" lon="-5.52872">
        <ele>1323.465</ele>
        <time>2011-04-22T17:26:23Z</time>
      </trkpt>
      <trkpt lat="31.53243" lon="-5.52424">
        <ele>1311.246</ele>
        <time>2011-04-22T17:26:47Z</time>
      </trkpt>
      <trkpt lat="31.53092" lon="-5.51863">
        <ele>1310.644</ele>
        <time>2011-04-22T17:27:20Z</time>
      </trkpt>
      <trkpt lat="31.52179" lon="-5.50993">
        <ele>1299.753</ele>
        <time>2011-04-22T17:28:24Z</time>
      </trkpt>
      <trkpt lat="31.51455" lon="-5.49987">
        <ele>1301.59</ele>
        <time>2011-04-22T17:29:22Z</time>
      </trkpt>
      <trkpt lat="31.51314" lon="-5.49795">
        <ele>1299.857</ele>
        <time>2011-04-22T17:29:29Z</time>
      </trkpt>
      <trkpt lat="31.50824" lon="-5.48983">
        <ele>1289.176</ele>
        <time>2011-04-22T17:30:01Z</time>
      </trkpt>
      <trkpt lat="31.49856" lon="-5.46749">
        <ele>1259.881</ele>
        <time>2011-04-22T17:31:23Z</time>
      </trkpt>
      <trkpt lat="31.49619" lon="-5.45829">
        <ele>1252.02</ele>
        <time>2011-04-22T17:31:53Z</time>
      </trkpt>
      <trkpt lat="31.49596" lon="-5.45255">
        <ele>1247.031</ele>
        <time>2011-04-22T17:32:13Z</time>
      </trkpt>
      <trkpt lat="31.49447" lon="-5.44858">
        <ele>1247.606</ele>
        <time>2011-04-22T17:32:28Z</time>
      </trkpt>
      <trkpt lat="31.48332" lon="-5.42619">
        <ele>1225.958</ele>
        <time>2011-04-22T17:33:51Z</time>
      </trkpt>
      <trkpt lat="31.47361" lon="-5.40884">
        <ele>1203.631</ele>
        <time>2011-04-22T17:35:42Z</time>
      </trkpt>
      <trkpt lat="31.46774" lon="-5.3941">
        <ele>1192.015</ele>
        <time>2011-04-22T17:36:59Z</time>
      </trkpt>
      <trkpt lat="31.46079" lon="-5.3789">
        <ele>1188.301</ele>
        <time>2011-04-22T17:38:28Z</time>
      </trkpt>
      <trkpt lat="31.45612" lon="-5.368">
        <ele>1179.83</ele>
        <time>2011-04-22T17:39:10Z</time>
      </trkpt>
      <trkpt lat="31.45557" lon="-5.3641">
        <ele>1178.108</ele>
        <time>2011-04-22T17:39:24Z</time>
      </trkpt>
      <trkpt lat="31.45566" lon="-5.3622">
        <ele>1174.679</ele>
        <time>2011-04-22T17:39:31Z</time>
      </trkpt>
      <trkpt lat="31.45387" lon="-5.35356">
        <ele>1177.822</ele>
        <time>2011-04-22T17:39:59Z</time>
      </trkpt>
      <trkpt lat="31.453" lon="-5.34927">
        <ele>1176.783</ele>
        <time>2011-04-22T17:40:13Z</time>
      </trkpt>
      <trkpt lat="31.45068" lon="-5.3445">
        <ele>1179.752</ele>
        <time>2011-04-22T17:40:31Z</time>
      </trkpt>
      <trkpt lat="31.44679" lon="-5.33845">
        <ele>1165.374</ele>
        <time>2011-04-22T17:40:58Z</time>
      </trkpt>
      <trkpt lat="31.44473" lon="-5.32534">
        <ele>1159.227</ele>
        <time>2011-04-22T17:41:43Z</time>
      </trkpt>
      <trkpt lat="31.44641" lon="-5.30041">
        <ele>1159.787</ele>
        <time>2011-04-22T17:43:01Z</time>
      </trkpt>
      <trkpt lat="31.44861" lon="-5.2879">
        <ele>1162.279</ele>
        <time>2011-04-22T17:43:41Z</time>
      </trkpt>
      <trkpt lat="31.44948" lon="-5.28025">
        <ele>1161.592</ele>
        <time>2011-04-22T17:44:06Z</time>
      </trkpt>
      <trkpt lat="31.44999" lon="-5.27794">
        <ele>1154.836</ele>
        <time>2011-04-22T17:44:14Z</time>
      </trkpt>
      <trkpt lat="31.4506" lon="-5.26111">
        <ele>1142.127</ele>
        <time>2011-04-22T17:45:07Z</time>
      </trkpt>
      <trkpt lat="31.45322" lon="-5.25373">
        <ele>1144.156</ele>
        <time>2011-04-22T17:45:33Z</time>
      </trkpt>
      <trkpt lat="31.4535" lon="-5.24067">
        <ele>1133.868</ele>
        <time>2011-04-22T17:46:14Z</time>
      </trkpt>
      <trkpt lat="31.46157" lon="-5.21722">
        <ele>1124.343</ele>
        <time>2011-04-22T17:47:34Z</time>
      </trkpt>
      <trkpt lat="31.46143" lon="-5.19929">
        <ele>1107.2</ele>
        <time>2011-04-22T17:48:30Z</time>
      </trkpt>
      <trkpt lat="31.46264" lon="-5.18744">
        <ele>1101.842</ele>
        <time>2011-04-22T17:49:08Z</time>
      </trkpt>
      <trkpt lat="31.46415" lon="-5.17594">
        <ele>1084.91</ele>
        <time>2011-04-22T17:49:45Z</time>
      </trkpt>
      <trkpt lat="31.48168" lon="-5.14562">
        <ele>1070.248</ele>
        <time>2011-04-22T17:51:41Z</time>
      </trkpt>
      <trkpt lat="31.48339" lon="-5.14111">
        <ele>1070.176</ele>
        <time>2011-04-22T17:51:56Z</time>
      </trkpt>
      <trkpt lat="31.48615" lon="-5.13026">
        <ele>1070.596</ele>
        <time>2011-04-22T17:52:32Z</time>
      </trkpt>
      <trkpt lat="31.49003" lon="-5.11486">
        <ele>1058.417</ele>
        <time>2011-04-22T17:53:23Z</time>
      </trkpt>
      <trkpt lat="31.4925" lon="-5.10806">
        <ele>1048.439</ele>
        <time>2011-04-22T17:53:46Z</time>
      </trkpt>
      <trkpt lat="31.49318" lon="-5.10106">
        <ele>1051.029</ele>
        <time>2011-04-22T17:54:11Z</time>
      </trkpt>
      <trkpt lat="31.49684" lon="-5.09109">
        <ele>1043.644</ele>
        <time>2011-04-22T17:54:55Z</time>
      </trkpt>
      <trkpt lat="31.4987" lon="-5.08562">
        <ele>1037.952</ele>
        <time>2011-04-22T17:55:21Z</time>
      </trkpt>
      <trkpt lat="31.4988" lon="-5.07599">
        <ele>1031.38</ele>
        <time>2011-04-22T17:56:07Z</time>
      </trkpt>
      <trkpt lat="31.50034" lon="-5.06857">
        <ele>1029.162</ele>
        <time>2011-04-22T17:56:47Z</time>
      </trkpt>
      <trkpt lat="31.50047" lon="-5.06491">
        <ele>1029.404</ele>
        <time>2011-04-22T17:57:14Z</time>
      </trkpt>
      <trkpt lat="31.50069" lon="-5.06184">
        <ele>1028.437</ele>
        <time>2011-04-22T17:57:37Z</time>
      </trkpt>
      <trkpt lat="31.50477" lon="-5.04868">
        <ele>1028.761</ele>
        <time>2011-04-22T17:59:24Z</time>
      </trkpt>
      <trkpt lat="31.51002" lon="-5.03005">
        <ele>1017.709</ele>
        <time>2011-04-22T18:01:27Z</time>
      </trkpt>
      <trkpt lat="31.51439" lon="-5.01935">
        <ele>1017.424</ele>
        <time>2011-04-22T18:02:30Z</time>
      </trkpt>
      <trkpt lat="31.51596" lon="-5.01551">
        <ele>1010.408</ele>
        <time>2011-04-22T18:02:48Z</time>
      </trkpt>
      <trkpt lat="31.51975" lon="-5.00899">
        <ele>1014.498</ele>
        <time>2011-04-22T18:03:18Z</time>
      </trkpt>
      <trkpt lat="31.52169" lon="-5.00766">
        <ele>1012.388</ele>
        <time>2011-04-22T18:03:28Z</time>
      </trkpt>
      <trkpt lat="31.52608" lon="-5.00845">
        <ele>1012.202</ele>
        <time>2011-04-22T18:03:48Z</time>
      </trkpt>
      <trkpt lat="31.52955" lon="-5.00777">
        <ele>1012.027</ele>
        <time>2011-04-22T18:04:03Z</time>
      </trkpt>
      <trkpt lat="31.53806" lon="-5.01109">
        <ele>1002.958</ele>
        <time>2011-04-22T18:04:57Z</time>
      </trkpt>
      <trkpt lat="31.5404" lon="-5.01114">
        <ele>1015.644</ele>
        <time>2011-04-22T18:05:10Z</time>
      </trkpt>
      <trkpt lat="31.58335" lon="-4.99223">
        <ele>1015.086</ele>
        <time>2011-04-22T18:08:13Z</time>
      </trkpt>
      <trkpt lat="31.60765" lon="-4.98772">
        <ele>1028.91</ele>
        <time>2011-04-22T18:09:47Z</time>
      </trkpt>
      <trkpt lat="31.61431" lon="-4.9845">
        <ele>1024.469</ele>
        <time>2011-04-22T18:10:17Z</time>
      </trkpt>
      <trkpt lat="31.64194" lon="-4.97457">
        <ele>1036.669</ele>
        <time>2011-04-22T18:12:24Z</time>
      </trkpt>
      <trkpt lat="31.65115" lon="-4.97263">
        <ele>1032.962</ele>
        <time>2011-04-22T18:12:54Z</time>
      </trkpt>
      <trkpt lat="31.65769" lon="-4.96991">
        <ele>1033.522</ele>
        <time>2011-04-22T18:13:21Z</time>
      </trkpt>
      <trkpt lat="31.66364" lon="-4.9687">
        <ele>1034.739</ele>
        <time>2011-04-22T18:13:44Z</time>
      </trkpt>
      <trkpt lat="31.67637" lon="-4.96515">
        <ele>1029.263</ele>
        <time>2011-04-22T18:14:47Z</time>
      </trkpt>
      <trkpt lat="31.6809" lon="-4.96277">
        <ele>1028.861</ele>
        <time>2011-04-22T18:15:21Z</time>
      </trkpt>
      <trkpt lat="31.69293" lon="-4.9528">
        <ele>1031.05</ele>
        <time>2011-04-22T18:18:32Z</time>
      </trkpt>
      <trkpt lat="31.69763" lon="-4.95962">
        <ele>1037.065</ele>
        <time>2011-04-22T18:19:55Z</time>
      </trkpt>
      <trkpt lat="31.69787" lon="-4.96372">
        <ele>1036.898</ele>
        <time>2011-04-22T18:20:33Z</time>
      </trkpt>
      <trkpt lat="31.69937" lon="-4.96747">
        <ele>1039.886</ele>
        <time>2011-04-22T18:21:14Z</time>
      </trkpt>
      <trkpt lat="31.6992" lon="-4.96849">
        <ele>1038.438</ele>
        <time>2011-04-22T18:21:32Z</time>
      </trkpt>
      <trkpt lat="31.69984" lon="-4.96912">
        <ele>1039.123</ele>
        <time>2011-04-22T18:21:50Z</time>
      </trkpt>
      <trkpt lat="31.69996" lon="-4.96957">
        <ele>1038.305</ele>
        <time>2011-04-22T18:21:57Z</time>
      </trkpt>
      <trkpt lat="31.69934" lon="-4.9754">
        <ele>1042.9</ele>
        <time>2011-04-22T18:22:46Z</time>
      </trkpt>
      <trkpt lat="31.6998" lon="-4.97613">
        <ele>1044.336</ele>
        <time>2011-04-22T18:22:53Z</time>
      </trkpt>
      <trkpt lat="31.70934" lon="-4.97846">
        <ele>1047.328</ele>
        <time>2011-04-22T18:24:18Z</time>
      </trkpt>
      <trkpt lat="31.71216" lon="-4.98085">
        <ele>1048.545</ele>
        <time>2011-04-22T18:24:46Z</time>
      </trkpt>
      <trkpt lat="31.71973" lon="-4.98277">
        <ele>1054.893</ele>
        <time>2011-04-22T18:25:36Z</time>
      </trkpt>
      <trkpt lat="31.72514" lon="-4.98682">
        <ele>1060.442</ele>
        <time>2011-04-22T18:26:13Z</time>
      </trkpt>
      <trkpt lat="31.72845" lon="-4.98694">
        <ele>1055.503</ele>
        <time>2011-04-22T18:26:41Z</time>
      </trkpt>
      <trkpt lat="31.73224" lon="-4.98387">
        <ele>1065.062</ele>
        <time>2011-04-22T18:27:16Z</time>
      </trkpt>
      <trkpt lat="31.73381" lon="-4.9834">
        <ele>1069.465</ele>
        <time>2011-04-22T18:27:24Z</time>
      </trkpt>
      <trkpt lat="31.75151" lon="-4.98415">
        <ele>1076.113</ele>
        <time>2011-04-22T18:28:52Z</time>
      </trkpt>
      <trkpt lat="31.75506" lon="-4.98312">
        <ele>1074.438</ele>
        <time>2011-04-22T18:29:11Z</time>
      </trkpt>
      <trkpt lat="31.75621" lon="-4.98188">
        <ele>1071.985</ele>
        <time>2011-04-22T18:29:22Z</time>
      </trkpt>
      <trkpt lat="31.75621" lon="-4.97805">
        <ele>1067.524</ele>
        <time>2011-04-22T18:30:14Z</time>
      </trkpt>
      <trkpt lat="31.75721" lon="-4.97703">
        <ele>1072.72</ele>
        <time>2011-04-22T18:30:25Z</time>
      </trkpt>
      <trkpt lat="31.76577" lon="-4.97477">
        <ele>1082.788</ele>
        <time>2011-04-22T18:33:11Z</time>
      </trkpt>
      <trkpt lat="31.7707" lon="-4.97178">
        <ele>1090.613</ele>
        <time>2011-04-22T18:33:38Z</time>
      </trkpt>
      <trkpt lat="31.77782" lon="-4.9672">
        <ele>1094.924</ele>
        <time>2011-04-22T18:34:19Z</time>
      </trkpt>
      <trkpt lat="31.78517" lon="-4.96286">
        <ele>1096.49</ele>
        <time>2011-04-22T18:34:56Z</time>
      </trkpt>
      <trkpt lat="31.80913" lon="-4.95227">
        <ele>1109.271</ele>
        <time>2011-04-22T18:37:01Z</time>
      </trkpt>
      <trkpt lat="31.8093" lon="-4.9522">
        <ele>1109.27</ele>
        <time>2011-04-22T18:37:02Z</time>
      </trkpt>
      <trkpt lat="31.81198" lon="-4.95134">
        <ele>1103.956</ele>
        <time>2011-04-22T18:37:19Z</time>
      </trkpt>
      <trkpt lat="31.81466" lon="-4.95315">
        <ele>1106.516</ele>
        <time>2011-04-22T18:37:42Z</time>
      </trkpt>
      <trkpt lat="31.81571" lon="-4.95419">
        <ele>1106.528</ele>
        <time>2011-04-22T18:37:53Z</time>
      </trkpt>
      <trkpt lat="31.81612" lon="-4.95471">
        <ele>1105.73</ele>
        <time>2011-04-22T18:38:00Z</time>
      </trkpt>
      <trkpt lat="31.81537" lon="-4.95589">
        <ele>1101.861</ele>
        <time>2011-04-22T18:38:25Z</time>
      </trkpt>
      <trkpt lat="31.81575" lon="-4.95818">
        <ele>1104.848</ele>
        <time>2011-04-22T18:38:54Z</time>
      </trkpt>
      <trkpt lat="31.81527" lon="-4.9596">
        <ele>1106.742</ele>
        <time>2011-04-22T18:39:13Z</time>
      </trkpt>
      <trkpt lat="31.8151" lon="-4.96047">
        <ele>1106.835</ele>
        <time>2011-04-22T18:39:26Z</time>
      </trkpt>
      <trkpt lat="31.81634" lon="-4.96326">
        <ele>1109.262</ele>
        <time>2011-04-22T18:40:08Z</time>
      </trkpt>
      <trkpt lat="31.81699" lon="-4.96374">
        <ele>1109.521</ele>
        <time>2011-04-22T18:40:20Z</time>
      </trkpt>
      <trkpt lat="31.81813" lon="-4.96603">
        <ele>1108.831</ele>
        <time>2011-04-22T18:41:11Z</time>
      </trkpt>
      <trkpt lat="31.81804" lon="-4.96712">
        <ele>1108.566</ele>
        <time>2011-04-22T18:41:25Z</time>
      </trkpt>
      <trkpt lat="31.81773" lon="-4.96785">
        <ele>1108.327</ele>
        <time>2011-04-22T18:41:42Z</time>
      </trkpt>
      <trkpt lat="31.81645" lon="-4.9676">
        <ele>1106.879</ele>
        <time>2011-04-22T18:42:28Z</time>
      </trkpt>
    </trkseg>
  </trk>
</gpx>